<?xml version="1.0" encoding="UTF-8" standalone="no" ?>
<gpx xmlns="http://www.topografix.com/GPX/1/1" xmlns:xsi="http://www.w3.org/2001/XMLSchema-instance" xsi:schemaLocation="http://www.topografix.com/GPX/1/1 http://www.topografix.com/GPX/1/1/gpx.xsd" version="1.1" creator="VisuGPX - https://www.visugpx.com">
  <metadata>
    <name>RSPFY-Grille aux lapins</name>
    <desc><![CDATA[marche nordique entre l'étang du Gruyer et l'étang du Coupe-Gorge.]]></desc>
  </metadata>
  <trk>
    <name><![CDATA[2023-03-07 08:49]]></name>
    <desc><![CDATA[<p>Heure de départ: 08:49 7 mars 2023<br/>Heure d'arrivée: 11:04 7 mars 2023<br/>Distance: 10,5 km (02:15)<br/>Temps déplacement: 01:55<br/>Vitesse moyenne: 4,63 km/h<br/>Vitesse moyenne mouv.: 5,44 km/h<br/>Vitesse Max.: 8 km/h<br/>Altitude minimale: 152 m<br/>Altitude maximale: 186 m<br/>Vitesse de montée: 157,3 m/h<br/>Vitesse de descente: -207,1 m/h<br/>Gain d'altitude: 196 m<br/>Perte d'altitude: -200 m<br/>Temps de montée: 01:14<br/>Temps de descente: 00:58<br/></p><hr align="center" width="480" style="height: 2px; width: 517px"/>]]></desc>
    <trkseg>
      <trkpt lat="48.66267" lon="1.81589">
        <ele>170</ele>
        <time>2023-03-07T07:49:14Z</time>
      </trkpt>
      <trkpt lat="48.66269" lon="1.81602">
        <ele>170</ele>
        <time>2023-03-07T07:51:52Z</time>
      </trkpt>
      <trkpt lat="48.66265" lon="1.81589">
        <ele>170</ele>
        <time>2023-03-07T07:52:17Z</time>
      </trkpt>
      <trkpt lat="48.66257" lon="1.81582">
        <ele>170</ele>
        <time>2023-03-07T07:53:08Z</time>
      </trkpt>
      <trkpt lat="48.66263" lon="1.81593">
        <ele>170</ele>
        <time>2023-03-07T07:57:48Z</time>
      </trkpt>
      <trkpt lat="48.6627" lon="1.81602">
        <ele>170</ele>
        <time>2023-03-07T07:57:55Z</time>
      </trkpt>
      <trkpt lat="48.66278" lon="1.81611">
        <ele>170</ele>
        <time>2023-03-07T07:58:01Z</time>
      </trkpt>
      <trkpt lat="48.66287" lon="1.81618">
        <ele>170</ele>
        <time>2023-03-07T07:58:07Z</time>
      </trkpt>
      <trkpt lat="48.66295" lon="1.81624">
        <ele>170</ele>
        <time>2023-03-07T07:58:13Z</time>
      </trkpt>
      <trkpt lat="48.66303" lon="1.81634">
        <ele>170</ele>
        <time>2023-03-07T07:58:20Z</time>
      </trkpt>
      <trkpt lat="48.66312" lon="1.81639">
        <ele>170</ele>
        <time>2023-03-07T07:58:26Z</time>
      </trkpt>
      <trkpt lat="48.66321" lon="1.81647">
        <ele>169.9</ele>
        <time>2023-03-07T07:58:33Z</time>
      </trkpt>
      <trkpt lat="48.66329" lon="1.81655">
        <ele>169.9</ele>
        <time>2023-03-07T07:58:40Z</time>
      </trkpt>
      <trkpt lat="48.66337" lon="1.81663">
        <ele>170</ele>
        <time>2023-03-07T07:58:47Z</time>
      </trkpt>
      <trkpt lat="48.66345" lon="1.81672">
        <ele>169.9</ele>
        <time>2023-03-07T07:58:54Z</time>
      </trkpt>
      <trkpt lat="48.66353" lon="1.8168">
        <ele>169.9</ele>
        <time>2023-03-07T07:59:00Z</time>
      </trkpt>
      <trkpt lat="48.66361" lon="1.81688">
        <ele>170</ele>
        <time>2023-03-07T07:59:06Z</time>
      </trkpt>
      <trkpt lat="48.66369" lon="1.81697">
        <ele>170</ele>
        <time>2023-03-07T07:59:13Z</time>
      </trkpt>
      <trkpt lat="48.66377" lon="1.81706">
        <ele>170</ele>
        <time>2023-03-07T07:59:20Z</time>
      </trkpt>
      <trkpt lat="48.66385" lon="1.81714">
        <ele>170</ele>
        <time>2023-03-07T07:59:27Z</time>
      </trkpt>
      <trkpt lat="48.66394" lon="1.81722">
        <ele>170</ele>
        <time>2023-03-07T07:59:34Z</time>
      </trkpt>
      <trkpt lat="48.66402" lon="1.81731">
        <ele>170</ele>
        <time>2023-03-07T07:59:41Z</time>
      </trkpt>
      <trkpt lat="48.66409" lon="1.81739">
        <ele>170</ele>
        <time>2023-03-07T07:59:47Z</time>
      </trkpt>
      <trkpt lat="48.66418" lon="1.81748">
        <ele>170</ele>
        <time>2023-03-07T07:59:54Z</time>
      </trkpt>
      <trkpt lat="48.66425" lon="1.81755">
        <ele>170</ele>
        <time>2023-03-07T08:00:00Z</time>
      </trkpt>
      <trkpt lat="48.66433" lon="1.81762">
        <ele>170</ele>
        <time>2023-03-07T08:00:06Z</time>
      </trkpt>
      <trkpt lat="48.66442" lon="1.81769">
        <ele>170</ele>
        <time>2023-03-07T08:00:13Z</time>
      </trkpt>
      <trkpt lat="48.6645" lon="1.81779">
        <ele>170</ele>
        <time>2023-03-07T08:00:20Z</time>
      </trkpt>
      <trkpt lat="48.66459" lon="1.81788">
        <ele>170</ele>
        <time>2023-03-07T08:00:27Z</time>
      </trkpt>
      <trkpt lat="48.66467" lon="1.81796">
        <ele>170</ele>
        <time>2023-03-07T08:00:34Z</time>
      </trkpt>
      <trkpt lat="48.66475" lon="1.81804">
        <ele>170</ele>
        <time>2023-03-07T08:00:41Z</time>
      </trkpt>
      <trkpt lat="48.66483" lon="1.81813">
        <ele>169.9</ele>
        <time>2023-03-07T08:00:48Z</time>
      </trkpt>
      <trkpt lat="48.66491" lon="1.81821">
        <ele>169.6</ele>
        <time>2023-03-07T08:00:55Z</time>
      </trkpt>
      <trkpt lat="48.66499" lon="1.81828">
        <ele>169.2</ele>
        <time>2023-03-07T08:01:01Z</time>
      </trkpt>
      <trkpt lat="48.66507" lon="1.81835">
        <ele>169</ele>
        <time>2023-03-07T08:01:08Z</time>
      </trkpt>
      <trkpt lat="48.66515" lon="1.81841">
        <ele>169</ele>
        <time>2023-03-07T08:01:15Z</time>
      </trkpt>
      <trkpt lat="48.66523" lon="1.8185">
        <ele>169</ele>
        <time>2023-03-07T08:01:21Z</time>
      </trkpt>
      <trkpt lat="48.66531" lon="1.81858">
        <ele>168.9</ele>
        <time>2023-03-07T08:01:27Z</time>
      </trkpt>
      <trkpt lat="48.66539" lon="1.81866">
        <ele>168.5</ele>
        <time>2023-03-07T08:01:34Z</time>
      </trkpt>
      <trkpt lat="48.66546" lon="1.81875">
        <ele>168.2</ele>
        <time>2023-03-07T08:01:40Z</time>
      </trkpt>
      <trkpt lat="48.66555" lon="1.81884">
        <ele>168</ele>
        <time>2023-03-07T08:01:47Z</time>
      </trkpt>
      <trkpt lat="48.66564" lon="1.81893">
        <ele>168</ele>
        <time>2023-03-07T08:01:54Z</time>
      </trkpt>
      <trkpt lat="48.66571" lon="1.81902">
        <ele>168</ele>
        <time>2023-03-07T08:02:00Z</time>
      </trkpt>
      <trkpt lat="48.66578" lon="1.81911">
        <ele>168</ele>
        <time>2023-03-07T08:02:06Z</time>
      </trkpt>
      <trkpt lat="48.66579" lon="1.81925">
        <ele>168</ele>
        <time>2023-03-07T08:02:13Z</time>
      </trkpt>
      <trkpt lat="48.66575" lon="1.81938">
        <ele>168</ele>
        <time>2023-03-07T08:02:23Z</time>
      </trkpt>
      <trkpt lat="48.66572" lon="1.81952">
        <ele>168</ele>
        <time>2023-03-07T08:02:33Z</time>
      </trkpt>
      <trkpt lat="48.66568" lon="1.81966">
        <ele>168</ele>
        <time>2023-03-07T08:02:41Z</time>
      </trkpt>
      <trkpt lat="48.66565" lon="1.8198">
        <ele>167.7</ele>
        <time>2023-03-07T08:02:48Z</time>
      </trkpt>
      <trkpt lat="48.66561" lon="1.81995">
        <ele>167.2</ele>
        <time>2023-03-07T08:02:55Z</time>
      </trkpt>
      <trkpt lat="48.66558" lon="1.8201">
        <ele>167</ele>
        <time>2023-03-07T08:03:04Z</time>
      </trkpt>
      <trkpt lat="48.66554" lon="1.82022">
        <ele>167</ele>
        <time>2023-03-07T08:03:12Z</time>
      </trkpt>
      <trkpt lat="48.66551" lon="1.82036">
        <ele>167</ele>
        <time>2023-03-07T08:03:20Z</time>
      </trkpt>
      <trkpt lat="48.66547" lon="1.8205">
        <ele>167</ele>
        <time>2023-03-07T08:03:27Z</time>
      </trkpt>
      <trkpt lat="48.66543" lon="1.82063">
        <ele>167</ele>
        <time>2023-03-07T08:03:35Z</time>
      </trkpt>
      <trkpt lat="48.6654" lon="1.82076">
        <ele>167</ele>
        <time>2023-03-07T08:03:42Z</time>
      </trkpt>
      <trkpt lat="48.66537" lon="1.82089">
        <ele>166.8</ele>
        <time>2023-03-07T08:03:49Z</time>
      </trkpt>
      <trkpt lat="48.66533" lon="1.82102">
        <ele>166.3</ele>
        <time>2023-03-07T08:03:55Z</time>
      </trkpt>
      <trkpt lat="48.66531" lon="1.82115">
        <ele>166</ele>
        <time>2023-03-07T08:04:01Z</time>
      </trkpt>
      <trkpt lat="48.66528" lon="1.82128">
        <ele>166</ele>
        <time>2023-03-07T08:04:08Z</time>
      </trkpt>
      <trkpt lat="48.66526" lon="1.82142">
        <ele>165.9</ele>
        <time>2023-03-07T08:04:14Z</time>
      </trkpt>
      <trkpt lat="48.66523" lon="1.82158">
        <ele>165.8</ele>
        <time>2023-03-07T08:04:20Z</time>
      </trkpt>
      <trkpt lat="48.6652" lon="1.82171">
        <ele>165.6</ele>
        <time>2023-03-07T08:04:25Z</time>
      </trkpt>
      <trkpt lat="48.66516" lon="1.82184">
        <ele>165.2</ele>
        <time>2023-03-07T08:04:33Z</time>
      </trkpt>
      <trkpt lat="48.66512" lon="1.82197">
        <ele>164.9</ele>
        <time>2023-03-07T08:04:40Z</time>
      </trkpt>
      <trkpt lat="48.66509" lon="1.82212">
        <ele>164.6</ele>
        <time>2023-03-07T08:04:47Z</time>
      </trkpt>
      <trkpt lat="48.66507" lon="1.82226">
        <ele>164.2</ele>
        <time>2023-03-07T08:04:55Z</time>
      </trkpt>
      <trkpt lat="48.66503" lon="1.8224">
        <ele>164.1</ele>
        <time>2023-03-07T08:05:02Z</time>
      </trkpt>
      <trkpt lat="48.66499" lon="1.82253">
        <ele>164</ele>
        <time>2023-03-07T08:05:08Z</time>
      </trkpt>
      <trkpt lat="48.66497" lon="1.82266">
        <ele>163.9</ele>
        <time>2023-03-07T08:05:15Z</time>
      </trkpt>
      <trkpt lat="48.66494" lon="1.8228">
        <ele>163.7</ele>
        <time>2023-03-07T08:05:23Z</time>
      </trkpt>
      <trkpt lat="48.66491" lon="1.82295">
        <ele>163.3</ele>
        <time>2023-03-07T08:05:30Z</time>
      </trkpt>
      <trkpt lat="48.66488" lon="1.82309">
        <ele>163</ele>
        <time>2023-03-07T08:05:36Z</time>
      </trkpt>
      <trkpt lat="48.66484" lon="1.82322">
        <ele>163</ele>
        <time>2023-03-07T08:05:43Z</time>
      </trkpt>
      <trkpt lat="48.6648" lon="1.82335">
        <ele>162.9</ele>
        <time>2023-03-07T08:05:50Z</time>
      </trkpt>
      <trkpt lat="48.66477" lon="1.82349">
        <ele>162.5</ele>
        <time>2023-03-07T08:05:57Z</time>
      </trkpt>
      <trkpt lat="48.66475" lon="1.82363">
        <ele>162.1</ele>
        <time>2023-03-07T08:06:05Z</time>
      </trkpt>
      <trkpt lat="48.66472" lon="1.82379">
        <ele>162</ele>
        <time>2023-03-07T08:06:12Z</time>
      </trkpt>
      <trkpt lat="48.66469" lon="1.82395">
        <ele>161.9</ele>
        <time>2023-03-07T08:06:19Z</time>
      </trkpt>
      <trkpt lat="48.66466" lon="1.8241">
        <ele>161.8</ele>
        <time>2023-03-07T08:06:25Z</time>
      </trkpt>
      <trkpt lat="48.66463" lon="1.82423">
        <ele>161.5</ele>
        <time>2023-03-07T08:06:31Z</time>
      </trkpt>
      <trkpt lat="48.6646" lon="1.82438">
        <ele>161.1</ele>
        <time>2023-03-07T08:06:38Z</time>
      </trkpt>
      <trkpt lat="48.66457" lon="1.8245">
        <ele>160.5</ele>
        <time>2023-03-07T08:06:44Z</time>
      </trkpt>
      <trkpt lat="48.66453" lon="1.82463">
        <ele>159.4</ele>
        <time>2023-03-07T08:06:52Z</time>
      </trkpt>
      <trkpt lat="48.6645" lon="1.82476">
        <ele>158.6</ele>
        <time>2023-03-07T08:06:59Z</time>
      </trkpt>
      <trkpt lat="48.66448" lon="1.82491">
        <ele>157.7</ele>
        <time>2023-03-07T08:07:06Z</time>
      </trkpt>
      <trkpt lat="48.66446" lon="1.82507">
        <ele>157.6</ele>
        <time>2023-03-07T08:07:13Z</time>
      </trkpt>
      <trkpt lat="48.66442" lon="1.8252">
        <ele>158.3</ele>
        <time>2023-03-07T08:07:19Z</time>
      </trkpt>
      <trkpt lat="48.66439" lon="1.82534">
        <ele>159</ele>
        <time>2023-03-07T08:07:27Z</time>
      </trkpt>
      <trkpt lat="48.66437" lon="1.82548">
        <ele>159.7</ele>
        <time>2023-03-07T08:07:36Z</time>
      </trkpt>
      <trkpt lat="48.66432" lon="1.8256">
        <ele>159.8</ele>
        <time>2023-03-07T08:07:43Z</time>
      </trkpt>
      <trkpt lat="48.66428" lon="1.82572">
        <ele>159.9</ele>
        <time>2023-03-07T08:07:49Z</time>
      </trkpt>
      <trkpt lat="48.66424" lon="1.82586">
        <ele>159.8</ele>
        <time>2023-03-07T08:07:56Z</time>
      </trkpt>
      <trkpt lat="48.66422" lon="1.826">
        <ele>160.1</ele>
        <time>2023-03-07T08:08:03Z</time>
      </trkpt>
      <trkpt lat="48.66421" lon="1.82614">
        <ele>160.5</ele>
        <time>2023-03-07T08:08:11Z</time>
      </trkpt>
      <trkpt lat="48.66428" lon="1.82627">
        <ele>161.4</ele>
        <time>2023-03-07T08:08:17Z</time>
      </trkpt>
      <trkpt lat="48.66435" lon="1.82638">
        <ele>162.3</ele>
        <time>2023-03-07T08:08:23Z</time>
      </trkpt>
      <trkpt lat="48.66442" lon="1.82647">
        <ele>162.9</ele>
        <time>2023-03-07T08:08:29Z</time>
      </trkpt>
      <trkpt lat="48.66451" lon="1.82657">
        <ele>163.2</ele>
        <time>2023-03-07T08:08:36Z</time>
      </trkpt>
      <trkpt lat="48.6646" lon="1.82664">
        <ele>163.6</ele>
        <time>2023-03-07T08:08:42Z</time>
      </trkpt>
      <trkpt lat="48.66467" lon="1.82673">
        <ele>163.9</ele>
        <time>2023-03-07T08:08:49Z</time>
      </trkpt>
      <trkpt lat="48.66475" lon="1.8268">
        <ele>164</ele>
        <time>2023-03-07T08:08:55Z</time>
      </trkpt>
      <trkpt lat="48.66483" lon="1.82688">
        <ele>164</ele>
        <time>2023-03-07T08:09:01Z</time>
      </trkpt>
      <trkpt lat="48.66492" lon="1.82694">
        <ele>164</ele>
        <time>2023-03-07T08:09:06Z</time>
      </trkpt>
      <trkpt lat="48.66499" lon="1.82704">
        <ele>164</ele>
        <time>2023-03-07T08:09:13Z</time>
      </trkpt>
      <trkpt lat="48.66509" lon="1.8271">
        <ele>164.1</ele>
        <time>2023-03-07T08:09:19Z</time>
      </trkpt>
      <trkpt lat="48.66517" lon="1.8272">
        <ele>164.1</ele>
        <time>2023-03-07T08:09:26Z</time>
      </trkpt>
      <trkpt lat="48.66525" lon="1.82726">
        <ele>164</ele>
        <time>2023-03-07T08:09:31Z</time>
      </trkpt>
      <trkpt lat="48.66534" lon="1.82734">
        <ele>164</ele>
        <time>2023-03-07T08:09:38Z</time>
      </trkpt>
      <trkpt lat="48.66542" lon="1.8274">
        <ele>164</ele>
        <time>2023-03-07T08:09:44Z</time>
      </trkpt>
      <trkpt lat="48.6655" lon="1.8275">
        <ele>164</ele>
        <time>2023-03-07T08:09:51Z</time>
      </trkpt>
      <trkpt lat="48.66558" lon="1.82759">
        <ele>163.7</ele>
        <time>2023-03-07T08:09:59Z</time>
      </trkpt>
      <trkpt lat="48.66566" lon="1.82768">
        <ele>163.6</ele>
        <time>2023-03-07T08:10:07Z</time>
      </trkpt>
      <trkpt lat="48.66574" lon="1.82777">
        <ele>163.7</ele>
        <time>2023-03-07T08:10:13Z</time>
      </trkpt>
      <trkpt lat="48.66581" lon="1.82785">
        <ele>163.9</ele>
        <time>2023-03-07T08:10:20Z</time>
      </trkpt>
      <trkpt lat="48.66588" lon="1.82795">
        <ele>164.1</ele>
        <time>2023-03-07T08:10:27Z</time>
      </trkpt>
      <trkpt lat="48.66596" lon="1.82805">
        <ele>164.4</ele>
        <time>2023-03-07T08:10:34Z</time>
      </trkpt>
      <trkpt lat="48.66604" lon="1.82812">
        <ele>164.8</ele>
        <time>2023-03-07T08:10:41Z</time>
      </trkpt>
      <trkpt lat="48.66612" lon="1.8282">
        <ele>165</ele>
        <time>2023-03-07T08:10:48Z</time>
      </trkpt>
      <trkpt lat="48.66621" lon="1.82826">
        <ele>165</ele>
        <time>2023-03-07T08:10:55Z</time>
      </trkpt>
      <trkpt lat="48.66629" lon="1.82834">
        <ele>165</ele>
        <time>2023-03-07T08:11:02Z</time>
      </trkpt>
      <trkpt lat="48.66637" lon="1.82841">
        <ele>165.3</ele>
        <time>2023-03-07T08:11:08Z</time>
      </trkpt>
      <trkpt lat="48.66646" lon="1.8285">
        <ele>165.7</ele>
        <time>2023-03-07T08:11:15Z</time>
      </trkpt>
      <trkpt lat="48.66653" lon="1.8286">
        <ele>166</ele>
        <time>2023-03-07T08:11:23Z</time>
      </trkpt>
      <trkpt lat="48.6666" lon="1.8287">
        <ele>166</ele>
        <time>2023-03-07T08:11:30Z</time>
      </trkpt>
      <trkpt lat="48.66667" lon="1.82881">
        <ele>166</ele>
        <time>2023-03-07T08:11:37Z</time>
      </trkpt>
      <trkpt lat="48.66676" lon="1.82889">
        <ele>166.3</ele>
        <time>2023-03-07T08:11:43Z</time>
      </trkpt>
      <trkpt lat="48.66685" lon="1.82897">
        <ele>166.7</ele>
        <time>2023-03-07T08:11:50Z</time>
      </trkpt>
      <trkpt lat="48.66693" lon="1.82904">
        <ele>166.9</ele>
        <time>2023-03-07T08:11:57Z</time>
      </trkpt>
      <trkpt lat="48.66701" lon="1.82912">
        <ele>167</ele>
        <time>2023-03-07T08:12:04Z</time>
      </trkpt>
      <trkpt lat="48.66709" lon="1.82921">
        <ele>167</ele>
        <time>2023-03-07T08:12:10Z</time>
      </trkpt>
      <trkpt lat="48.66713" lon="1.82933">
        <ele>167</ele>
        <time>2023-03-07T08:12:22Z</time>
      </trkpt>
      <trkpt lat="48.66718" lon="1.82946">
        <ele>167</ele>
        <time>2023-03-07T08:12:32Z</time>
      </trkpt>
      <trkpt lat="48.66722" lon="1.82959">
        <ele>167</ele>
        <time>2023-03-07T08:12:39Z</time>
      </trkpt>
      <trkpt lat="48.66729" lon="1.8297">
        <ele>167.2</ele>
        <time>2023-03-07T08:12:46Z</time>
      </trkpt>
      <trkpt lat="48.66737" lon="1.82975">
        <ele>167.5</ele>
        <time>2023-03-07T08:12:53Z</time>
      </trkpt>
      <trkpt lat="48.66747" lon="1.82979">
        <ele>167.9</ele>
        <time>2023-03-07T08:13:01Z</time>
      </trkpt>
      <trkpt lat="48.66757" lon="1.82977">
        <ele>168</ele>
        <time>2023-03-07T08:13:09Z</time>
      </trkpt>
      <trkpt lat="48.66766" lon="1.82976">
        <ele>168</ele>
        <time>2023-03-07T08:13:17Z</time>
      </trkpt>
      <trkpt lat="48.66776" lon="1.8298">
        <ele>168</ele>
        <time>2023-03-07T08:13:25Z</time>
      </trkpt>
      <trkpt lat="48.66785" lon="1.82973">
        <ele>168</ele>
        <time>2023-03-07T08:13:33Z</time>
      </trkpt>
      <trkpt lat="48.66795" lon="1.82973">
        <ele>168</ele>
        <time>2023-03-07T08:13:40Z</time>
      </trkpt>
      <trkpt lat="48.66802" lon="1.82965">
        <ele>168</ele>
        <time>2023-03-07T08:13:47Z</time>
      </trkpt>
      <trkpt lat="48.66811" lon="1.82967">
        <ele>168</ele>
        <time>2023-03-07T08:13:55Z</time>
      </trkpt>
      <trkpt lat="48.66821" lon="1.82971">
        <ele>168</ele>
        <time>2023-03-07T08:14:06Z</time>
      </trkpt>
      <trkpt lat="48.6683" lon="1.82969">
        <ele>168</ele>
        <time>2023-03-07T08:14:11Z</time>
      </trkpt>
      <trkpt lat="48.66838" lon="1.82974">
        <ele>168</ele>
        <time>2023-03-07T08:14:21Z</time>
      </trkpt>
      <trkpt lat="48.66848" lon="1.82975">
        <ele>168</ele>
        <time>2023-03-07T08:14:27Z</time>
      </trkpt>
      <trkpt lat="48.66858" lon="1.82975">
        <ele>168</ele>
        <time>2023-03-07T08:14:33Z</time>
      </trkpt>
      <trkpt lat="48.66867" lon="1.82978">
        <ele>168</ele>
        <time>2023-03-07T08:14:39Z</time>
      </trkpt>
      <trkpt lat="48.66877" lon="1.82982">
        <ele>167.8</ele>
        <time>2023-03-07T08:14:45Z</time>
      </trkpt>
      <trkpt lat="48.66887" lon="1.82986">
        <ele>167.5</ele>
        <time>2023-03-07T08:14:50Z</time>
      </trkpt>
      <trkpt lat="48.66893" lon="1.82997">
        <ele>166.9</ele>
        <time>2023-03-07T08:14:57Z</time>
      </trkpt>
      <trkpt lat="48.669" lon="1.83007">
        <ele>166.3</ele>
        <time>2023-03-07T08:15:03Z</time>
      </trkpt>
      <trkpt lat="48.66908" lon="1.83016">
        <ele>165.3</ele>
        <time>2023-03-07T08:15:10Z</time>
      </trkpt>
      <trkpt lat="48.66916" lon="1.83024">
        <ele>164.3</ele>
        <time>2023-03-07T08:15:17Z</time>
      </trkpt>
      <trkpt lat="48.66925" lon="1.83031">
        <ele>163.2</ele>
        <time>2023-03-07T08:15:23Z</time>
      </trkpt>
      <trkpt lat="48.66934" lon="1.83035">
        <ele>162.4</ele>
        <time>2023-03-07T08:15:29Z</time>
      </trkpt>
      <trkpt lat="48.66944" lon="1.83036">
        <ele>161.7</ele>
        <time>2023-03-07T08:15:39Z</time>
      </trkpt>
      <trkpt lat="48.66953" lon="1.83039">
        <ele>160.9</ele>
        <time>2023-03-07T08:15:46Z</time>
      </trkpt>
      <trkpt lat="48.66962" lon="1.83036">
        <ele>160.5</ele>
        <time>2023-03-07T08:15:53Z</time>
      </trkpt>
      <trkpt lat="48.66972" lon="1.83039">
        <ele>159.4</ele>
        <time>2023-03-07T08:16:00Z</time>
      </trkpt>
      <trkpt lat="48.66981" lon="1.83049">
        <ele>158.4</ele>
        <time>2023-03-07T08:16:06Z</time>
      </trkpt>
      <trkpt lat="48.66987" lon="1.83062">
        <ele>158.2</ele>
        <time>2023-03-07T08:16:12Z</time>
      </trkpt>
      <trkpt lat="48.66993" lon="1.83074">
        <ele>158.6</ele>
        <time>2023-03-07T08:16:18Z</time>
      </trkpt>
      <trkpt lat="48.66998" lon="1.83087">
        <ele>158.8</ele>
        <time>2023-03-07T08:16:25Z</time>
      </trkpt>
      <trkpt lat="48.67004" lon="1.83099">
        <ele>158.4</ele>
        <time>2023-03-07T08:16:31Z</time>
      </trkpt>
      <trkpt lat="48.67009" lon="1.83112">
        <ele>158</ele>
        <time>2023-03-07T08:16:37Z</time>
      </trkpt>
      <trkpt lat="48.67015" lon="1.83124">
        <ele>158.2</ele>
        <time>2023-03-07T08:16:43Z</time>
      </trkpt>
      <trkpt lat="48.67019" lon="1.83137">
        <ele>158.3</ele>
        <time>2023-03-07T08:16:50Z</time>
      </trkpt>
      <trkpt lat="48.67023" lon="1.8315">
        <ele>158.8</ele>
        <time>2023-03-07T08:16:57Z</time>
      </trkpt>
      <trkpt lat="48.67029" lon="1.83161">
        <ele>159.7</ele>
        <time>2023-03-07T08:17:04Z</time>
      </trkpt>
      <trkpt lat="48.67039" lon="1.83162">
        <ele>160.7</ele>
        <time>2023-03-07T08:17:14Z</time>
      </trkpt>
      <trkpt lat="48.67048" lon="1.83157">
        <ele>160.8</ele>
        <time>2023-03-07T08:17:22Z</time>
      </trkpt>
      <trkpt lat="48.67057" lon="1.8315">
        <ele>160</ele>
        <time>2023-03-07T08:17:29Z</time>
      </trkpt>
      <trkpt lat="48.67066" lon="1.83145">
        <ele>159.6</ele>
        <time>2023-03-07T08:17:36Z</time>
      </trkpt>
      <trkpt lat="48.67075" lon="1.83141">
        <ele>159.2</ele>
        <time>2023-03-07T08:17:44Z</time>
      </trkpt>
      <trkpt lat="48.67085" lon="1.8314">
        <ele>159.3</ele>
        <time>2023-03-07T08:17:52Z</time>
      </trkpt>
      <trkpt lat="48.67094" lon="1.8314">
        <ele>159.1</ele>
        <time>2023-03-07T08:17:58Z</time>
      </trkpt>
      <trkpt lat="48.67104" lon="1.83141">
        <ele>159.3</ele>
        <time>2023-03-07T08:18:04Z</time>
      </trkpt>
      <trkpt lat="48.67112" lon="1.83145">
        <ele>159.9</ele>
        <time>2023-03-07T08:18:11Z</time>
      </trkpt>
      <trkpt lat="48.6712" lon="1.83155">
        <ele>160.5</ele>
        <time>2023-03-07T08:18:18Z</time>
      </trkpt>
      <trkpt lat="48.67127" lon="1.83165">
        <ele>160.6</ele>
        <time>2023-03-07T08:18:25Z</time>
      </trkpt>
      <trkpt lat="48.67136" lon="1.83173">
        <ele>160.2</ele>
        <time>2023-03-07T08:18:32Z</time>
      </trkpt>
      <trkpt lat="48.67145" lon="1.83172">
        <ele>159.8</ele>
        <time>2023-03-07T08:18:41Z</time>
      </trkpt>
      <trkpt lat="48.6715" lon="1.83158">
        <ele>160</ele>
        <time>2023-03-07T08:18:49Z</time>
      </trkpt>
      <trkpt lat="48.67151" lon="1.83144">
        <ele>160.6</ele>
        <time>2023-03-07T08:18:57Z</time>
      </trkpt>
      <trkpt lat="48.67153" lon="1.83129">
        <ele>160.6</ele>
        <time>2023-03-07T08:19:03Z</time>
      </trkpt>
      <trkpt lat="48.67156" lon="1.83116">
        <ele>160.6</ele>
        <time>2023-03-07T08:19:10Z</time>
      </trkpt>
      <trkpt lat="48.67162" lon="1.83105">
        <ele>160.7</ele>
        <time>2023-03-07T08:19:19Z</time>
      </trkpt>
      <trkpt lat="48.67169" lon="1.83096">
        <ele>160.7</ele>
        <time>2023-03-07T08:19:27Z</time>
      </trkpt>
      <trkpt lat="48.67175" lon="1.83085">
        <ele>160.7</ele>
        <time>2023-03-07T08:19:35Z</time>
      </trkpt>
      <trkpt lat="48.67181" lon="1.83074">
        <ele>161.1</ele>
        <time>2023-03-07T08:19:42Z</time>
      </trkpt>
      <trkpt lat="48.67189" lon="1.83063">
        <ele>161.3</ele>
        <time>2023-03-07T08:19:49Z</time>
      </trkpt>
      <trkpt lat="48.67197" lon="1.83054">
        <ele>161.3</ele>
        <time>2023-03-07T08:19:56Z</time>
      </trkpt>
      <trkpt lat="48.67204" lon="1.83042">
        <ele>162</ele>
        <time>2023-03-07T08:20:03Z</time>
      </trkpt>
      <trkpt lat="48.67208" lon="1.8303">
        <ele>162.1</ele>
        <time>2023-03-07T08:20:11Z</time>
      </trkpt>
      <trkpt lat="48.67216" lon="1.8302">
        <ele>163.1</ele>
        <time>2023-03-07T08:20:19Z</time>
      </trkpt>
      <trkpt lat="48.67221" lon="1.8301">
        <ele>163.6</ele>
        <time>2023-03-07T08:20:27Z</time>
      </trkpt>
      <trkpt lat="48.67228" lon="1.82999">
        <ele>164.2</ele>
        <time>2023-03-07T08:20:35Z</time>
      </trkpt>
      <trkpt lat="48.67235" lon="1.82988">
        <ele>164.5</ele>
        <time>2023-03-07T08:20:42Z</time>
      </trkpt>
      <trkpt lat="48.67243" lon="1.8298">
        <ele>165.8</ele>
        <time>2023-03-07T08:20:50Z</time>
      </trkpt>
      <trkpt lat="48.67249" lon="1.82969">
        <ele>166.3</ele>
        <time>2023-03-07T08:20:57Z</time>
      </trkpt>
      <trkpt lat="48.67256" lon="1.82959">
        <ele>165.6</ele>
        <time>2023-03-07T08:21:05Z</time>
      </trkpt>
      <trkpt lat="48.67262" lon="1.82948">
        <ele>164.8</ele>
        <time>2023-03-07T08:21:12Z</time>
      </trkpt>
      <trkpt lat="48.67267" lon="1.82935">
        <ele>164.5</ele>
        <time>2023-03-07T08:21:19Z</time>
      </trkpt>
      <trkpt lat="48.67273" lon="1.82925">
        <ele>165.1</ele>
        <time>2023-03-07T08:21:25Z</time>
      </trkpt>
      <trkpt lat="48.67281" lon="1.82915">
        <ele>166.4</ele>
        <time>2023-03-07T08:21:32Z</time>
      </trkpt>
      <trkpt lat="48.67288" lon="1.82906">
        <ele>167.2</ele>
        <time>2023-03-07T08:21:39Z</time>
      </trkpt>
      <trkpt lat="48.67293" lon="1.82895">
        <ele>167.8</ele>
        <time>2023-03-07T08:21:46Z</time>
      </trkpt>
      <trkpt lat="48.67298" lon="1.82882">
        <ele>168.2</ele>
        <time>2023-03-07T08:21:52Z</time>
      </trkpt>
      <trkpt lat="48.67305" lon="1.82872">
        <ele>169.4</ele>
        <time>2023-03-07T08:22:01Z</time>
      </trkpt>
      <trkpt lat="48.67313" lon="1.82863">
        <ele>169.3</ele>
        <time>2023-03-07T08:22:08Z</time>
      </trkpt>
      <trkpt lat="48.67322" lon="1.82857">
        <ele>169.3</ele>
        <time>2023-03-07T08:22:16Z</time>
      </trkpt>
      <trkpt lat="48.6733" lon="1.82849">
        <ele>169.2</ele>
        <time>2023-03-07T08:22:24Z</time>
      </trkpt>
      <trkpt lat="48.67337" lon="1.82839">
        <ele>169.3</ele>
        <time>2023-03-07T08:22:31Z</time>
      </trkpt>
      <trkpt lat="48.67346" lon="1.8283">
        <ele>168.9</ele>
        <time>2023-03-07T08:22:38Z</time>
      </trkpt>
      <trkpt lat="48.67351" lon="1.82819">
        <ele>166.8</ele>
        <time>2023-03-07T08:22:44Z</time>
      </trkpt>
      <trkpt lat="48.67359" lon="1.82809">
        <ele>165.5</ele>
        <time>2023-03-07T08:22:50Z</time>
      </trkpt>
      <trkpt lat="48.67366" lon="1.82801">
        <ele>164.5</ele>
        <time>2023-03-07T08:22:56Z</time>
      </trkpt>
      <trkpt lat="48.67374" lon="1.82792">
        <ele>163.4</ele>
        <time>2023-03-07T08:23:03Z</time>
      </trkpt>
      <trkpt lat="48.67381" lon="1.82781">
        <ele>161.9</ele>
        <time>2023-03-07T08:23:10Z</time>
      </trkpt>
      <trkpt lat="48.67389" lon="1.82775">
        <ele>161.7</ele>
        <time>2023-03-07T08:23:15Z</time>
      </trkpt>
      <trkpt lat="48.67398" lon="1.82769">
        <ele>161.9</ele>
        <time>2023-03-07T08:23:22Z</time>
      </trkpt>
      <trkpt lat="48.67407" lon="1.82764">
        <ele>161.7</ele>
        <time>2023-03-07T08:23:29Z</time>
      </trkpt>
      <trkpt lat="48.67415" lon="1.8276">
        <ele>161.6</ele>
        <time>2023-03-07T08:23:35Z</time>
      </trkpt>
      <trkpt lat="48.6742" lon="1.82746">
        <ele>159.9</ele>
        <time>2023-03-07T08:23:44Z</time>
      </trkpt>
      <trkpt lat="48.67425" lon="1.82734">
        <ele>159.6</ele>
        <time>2023-03-07T08:23:52Z</time>
      </trkpt>
      <trkpt lat="48.67433" lon="1.82726">
        <ele>159.6</ele>
        <time>2023-03-07T08:24:00Z</time>
      </trkpt>
      <trkpt lat="48.67438" lon="1.82715">
        <ele>159.6</ele>
        <time>2023-03-07T08:24:09Z</time>
      </trkpt>
      <trkpt lat="48.67446" lon="1.82704">
        <ele>159.5</ele>
        <time>2023-03-07T08:24:16Z</time>
      </trkpt>
      <trkpt lat="48.67453" lon="1.82695">
        <ele>160.5</ele>
        <time>2023-03-07T08:24:25Z</time>
      </trkpt>
      <trkpt lat="48.67461" lon="1.82688">
        <ele>161.5</ele>
        <time>2023-03-07T08:24:33Z</time>
      </trkpt>
      <trkpt lat="48.6747" lon="1.82684">
        <ele>162.5</ele>
        <time>2023-03-07T08:24:39Z</time>
      </trkpt>
      <trkpt lat="48.6748" lon="1.82677">
        <ele>163.6</ele>
        <time>2023-03-07T08:24:46Z</time>
      </trkpt>
      <trkpt lat="48.6749" lon="1.82678">
        <ele>165.5</ele>
        <time>2023-03-07T08:24:53Z</time>
      </trkpt>
      <trkpt lat="48.675" lon="1.82673">
        <ele>167.1</ele>
        <time>2023-03-07T08:24:59Z</time>
      </trkpt>
      <trkpt lat="48.67509" lon="1.82673">
        <ele>168.1</ele>
        <time>2023-03-07T08:25:07Z</time>
      </trkpt>
      <trkpt lat="48.67518" lon="1.8267">
        <ele>169</ele>
        <time>2023-03-07T08:25:15Z</time>
      </trkpt>
      <trkpt lat="48.67528" lon="1.8267">
        <ele>170</ele>
        <time>2023-03-07T08:25:23Z</time>
      </trkpt>
      <trkpt lat="48.67537" lon="1.82666">
        <ele>170.3</ele>
        <time>2023-03-07T08:25:31Z</time>
      </trkpt>
      <trkpt lat="48.67546" lon="1.8266">
        <ele>170.6</ele>
        <time>2023-03-07T08:25:38Z</time>
      </trkpt>
      <trkpt lat="48.67555" lon="1.82657">
        <ele>171</ele>
        <time>2023-03-07T08:25:45Z</time>
      </trkpt>
      <trkpt lat="48.67565" lon="1.8265">
        <ele>171</ele>
        <time>2023-03-07T08:25:51Z</time>
      </trkpt>
      <trkpt lat="48.67573" lon="1.82642">
        <ele>171</ele>
        <time>2023-03-07T08:25:57Z</time>
      </trkpt>
      <trkpt lat="48.6758" lon="1.82632">
        <ele>170.9</ele>
        <time>2023-03-07T08:26:05Z</time>
      </trkpt>
      <trkpt lat="48.67588" lon="1.82625">
        <ele>171.1</ele>
        <time>2023-03-07T08:26:13Z</time>
      </trkpt>
      <trkpt lat="48.67595" lon="1.82616">
        <ele>171.4</ele>
        <time>2023-03-07T08:26:19Z</time>
      </trkpt>
      <trkpt lat="48.67604" lon="1.82609">
        <ele>171.7</ele>
        <time>2023-03-07T08:26:26Z</time>
      </trkpt>
      <trkpt lat="48.67613" lon="1.82601">
        <ele>171.7</ele>
        <time>2023-03-07T08:26:33Z</time>
      </trkpt>
      <trkpt lat="48.6762" lon="1.82593">
        <ele>171.6</ele>
        <time>2023-03-07T08:26:39Z</time>
      </trkpt>
      <trkpt lat="48.67627" lon="1.82582">
        <ele>171.6</ele>
        <time>2023-03-07T08:26:45Z</time>
      </trkpt>
      <trkpt lat="48.67634" lon="1.82574">
        <ele>171.8</ele>
        <time>2023-03-07T08:26:54Z</time>
      </trkpt>
      <trkpt lat="48.6764" lon="1.82563">
        <ele>172</ele>
        <time>2023-03-07T08:27:03Z</time>
      </trkpt>
      <trkpt lat="48.67641" lon="1.82548">
        <ele>171.5</ele>
        <time>2023-03-07T08:27:09Z</time>
      </trkpt>
      <trkpt lat="48.67641" lon="1.82534">
        <ele>170.6</ele>
        <time>2023-03-07T08:27:15Z</time>
      </trkpt>
      <trkpt lat="48.6764" lon="1.82519">
        <ele>169.2</ele>
        <time>2023-03-07T08:27:22Z</time>
      </trkpt>
      <trkpt lat="48.67638" lon="1.82505">
        <ele>167.4</ele>
        <time>2023-03-07T08:27:29Z</time>
      </trkpt>
      <trkpt lat="48.67637" lon="1.82489">
        <ele>165</ele>
        <time>2023-03-07T08:27:36Z</time>
      </trkpt>
      <trkpt lat="48.67635" lon="1.82475">
        <ele>163</ele>
        <time>2023-03-07T08:27:43Z</time>
      </trkpt>
      <trkpt lat="48.67634" lon="1.8246">
        <ele>161.8</ele>
        <time>2023-03-07T08:27:50Z</time>
      </trkpt>
      <trkpt lat="48.67633" lon="1.82446">
        <ele>160.9</ele>
        <time>2023-03-07T08:27:56Z</time>
      </trkpt>
      <trkpt lat="48.67632" lon="1.8243">
        <ele>161</ele>
        <time>2023-03-07T08:28:04Z</time>
      </trkpt>
      <trkpt lat="48.67632" lon="1.82416">
        <ele>161.3</ele>
        <time>2023-03-07T08:28:10Z</time>
      </trkpt>
      <trkpt lat="48.67631" lon="1.82401">
        <ele>162.5</ele>
        <time>2023-03-07T08:28:17Z</time>
      </trkpt>
      <trkpt lat="48.6763" lon="1.82387">
        <ele>163.7</ele>
        <time>2023-03-07T08:28:24Z</time>
      </trkpt>
      <trkpt lat="48.67627" lon="1.82373">
        <ele>164.8</ele>
        <time>2023-03-07T08:28:31Z</time>
      </trkpt>
      <trkpt lat="48.67625" lon="1.82359">
        <ele>165.6</ele>
        <time>2023-03-07T08:28:37Z</time>
      </trkpt>
      <trkpt lat="48.67623" lon="1.82344">
        <ele>166.5</ele>
        <time>2023-03-07T08:28:44Z</time>
      </trkpt>
      <trkpt lat="48.67622" lon="1.8233">
        <ele>167.4</ele>
        <time>2023-03-07T08:28:51Z</time>
      </trkpt>
      <trkpt lat="48.67621" lon="1.82316">
        <ele>168.1</ele>
        <time>2023-03-07T08:28:59Z</time>
      </trkpt>
      <trkpt lat="48.6762" lon="1.82302">
        <ele>168.9</ele>
        <time>2023-03-07T08:29:07Z</time>
      </trkpt>
      <trkpt lat="48.67617" lon="1.82288">
        <ele>170.1</ele>
        <time>2023-03-07T08:29:14Z</time>
      </trkpt>
      <trkpt lat="48.67614" lon="1.82275">
        <ele>170.9</ele>
        <time>2023-03-07T08:29:22Z</time>
      </trkpt>
      <trkpt lat="48.67612" lon="1.8226">
        <ele>171</ele>
        <time>2023-03-07T08:29:29Z</time>
      </trkpt>
      <trkpt lat="48.67611" lon="1.82245">
        <ele>171.2</ele>
        <time>2023-03-07T08:29:36Z</time>
      </trkpt>
      <trkpt lat="48.6761" lon="1.82231">
        <ele>171.7</ele>
        <time>2023-03-07T08:29:42Z</time>
      </trkpt>
      <trkpt lat="48.6761" lon="1.82216">
        <ele>172</ele>
        <time>2023-03-07T08:29:50Z</time>
      </trkpt>
      <trkpt lat="48.67617" lon="1.82207">
        <ele>171.9</ele>
        <time>2023-03-07T08:32:01Z</time>
      </trkpt>
      <trkpt lat="48.67625" lon="1.82204">
        <ele>171.8</ele>
        <time>2023-03-07T08:33:00Z</time>
      </trkpt>
      <trkpt lat="48.67635" lon="1.82205">
        <ele>171.7</ele>
        <time>2023-03-07T08:33:09Z</time>
      </trkpt>
      <trkpt lat="48.67644" lon="1.82208">
        <ele>171.4</ele>
        <time>2023-03-07T08:33:17Z</time>
      </trkpt>
      <trkpt lat="48.67653" lon="1.82211">
        <ele>171.2</ele>
        <time>2023-03-07T08:33:25Z</time>
      </trkpt>
      <trkpt lat="48.67662" lon="1.82212">
        <ele>171.1</ele>
        <time>2023-03-07T08:33:33Z</time>
      </trkpt>
      <trkpt lat="48.67672" lon="1.82213">
        <ele>170.6</ele>
        <time>2023-03-07T08:33:42Z</time>
      </trkpt>
      <trkpt lat="48.67682" lon="1.82214">
        <ele>169.9</ele>
        <time>2023-03-07T08:33:51Z</time>
      </trkpt>
      <trkpt lat="48.67693" lon="1.82216">
        <ele>169.1</ele>
        <time>2023-03-07T08:33:57Z</time>
      </trkpt>
      <trkpt lat="48.67703" lon="1.82219">
        <ele>167.2</ele>
        <time>2023-03-07T08:34:04Z</time>
      </trkpt>
      <trkpt lat="48.67712" lon="1.8222">
        <ele>165.2</ele>
        <time>2023-03-07T08:34:13Z</time>
      </trkpt>
      <trkpt lat="48.67722" lon="1.82221">
        <ele>163</ele>
        <time>2023-03-07T08:34:21Z</time>
      </trkpt>
      <trkpt lat="48.67731" lon="1.82223">
        <ele>162.7</ele>
        <time>2023-03-07T08:34:29Z</time>
      </trkpt>
      <trkpt lat="48.67741" lon="1.82225">
        <ele>162.2</ele>
        <time>2023-03-07T08:34:42Z</time>
      </trkpt>
      <trkpt lat="48.67752" lon="1.82226">
        <ele>162</ele>
        <time>2023-03-07T08:34:50Z</time>
      </trkpt>
      <trkpt lat="48.67761" lon="1.82223">
        <ele>162.8</ele>
        <time>2023-03-07T08:34:56Z</time>
      </trkpt>
      <trkpt lat="48.67769" lon="1.82217">
        <ele>163.4</ele>
        <time>2023-03-07T08:35:02Z</time>
      </trkpt>
      <trkpt lat="48.67777" lon="1.8221">
        <ele>164</ele>
        <time>2023-03-07T08:35:08Z</time>
      </trkpt>
      <trkpt lat="48.67784" lon="1.82201">
        <ele>165.4</ele>
        <time>2023-03-07T08:35:17Z</time>
      </trkpt>
      <trkpt lat="48.6779" lon="1.82191">
        <ele>166.6</ele>
        <time>2023-03-07T08:35:26Z</time>
      </trkpt>
      <trkpt lat="48.67799" lon="1.82184">
        <ele>167.9</ele>
        <time>2023-03-07T08:35:37Z</time>
      </trkpt>
      <trkpt lat="48.67808" lon="1.82177">
        <ele>169</ele>
        <time>2023-03-07T08:35:46Z</time>
      </trkpt>
      <trkpt lat="48.67815" lon="1.82167">
        <ele>169.1</ele>
        <time>2023-03-07T08:35:53Z</time>
      </trkpt>
      <trkpt lat="48.67823" lon="1.82159">
        <ele>168.7</ele>
        <time>2023-03-07T08:36:01Z</time>
      </trkpt>
      <trkpt lat="48.6783" lon="1.8215">
        <ele>168.1</ele>
        <time>2023-03-07T08:36:10Z</time>
      </trkpt>
      <trkpt lat="48.67832" lon="1.82136">
        <ele>166.8</ele>
        <time>2023-03-07T08:36:17Z</time>
      </trkpt>
      <trkpt lat="48.67836" lon="1.82123">
        <ele>166.6</ele>
        <time>2023-03-07T08:36:26Z</time>
      </trkpt>
      <trkpt lat="48.67832" lon="1.82111">
        <ele>166.1</ele>
        <time>2023-03-07T08:36:35Z</time>
      </trkpt>
      <trkpt lat="48.6783" lon="1.82097">
        <ele>168.1</ele>
        <time>2023-03-07T08:36:47Z</time>
      </trkpt>
      <trkpt lat="48.6783" lon="1.82084">
        <ele>170</ele>
        <time>2023-03-07T08:36:58Z</time>
      </trkpt>
      <trkpt lat="48.67831" lon="1.82069">
        <ele>171</ele>
        <time>2023-03-07T08:37:06Z</time>
      </trkpt>
      <trkpt lat="48.67835" lon="1.82054">
        <ele>172</ele>
        <time>2023-03-07T08:37:15Z</time>
      </trkpt>
      <trkpt lat="48.6783" lon="1.82041">
        <ele>171.9</ele>
        <time>2023-03-07T08:37:25Z</time>
      </trkpt>
      <trkpt lat="48.67822" lon="1.82033">
        <ele>171.6</ele>
        <time>2023-03-07T08:37:32Z</time>
      </trkpt>
      <trkpt lat="48.67814" lon="1.82025">
        <ele>171.4</ele>
        <time>2023-03-07T08:37:40Z</time>
      </trkpt>
      <trkpt lat="48.67806" lon="1.82019">
        <ele>171.3</ele>
        <time>2023-03-07T08:37:47Z</time>
      </trkpt>
      <trkpt lat="48.67798" lon="1.82009">
        <ele>171.2</ele>
        <time>2023-03-07T08:37:54Z</time>
      </trkpt>
      <trkpt lat="48.67794" lon="1.81996">
        <ele>171.2</ele>
        <time>2023-03-07T08:38:02Z</time>
      </trkpt>
      <trkpt lat="48.6779" lon="1.81982">
        <ele>171.3</ele>
        <time>2023-03-07T08:38:11Z</time>
      </trkpt>
      <trkpt lat="48.67787" lon="1.81969">
        <ele>171.3</ele>
        <time>2023-03-07T08:38:19Z</time>
      </trkpt>
      <trkpt lat="48.67782" lon="1.81956">
        <ele>171.2</ele>
        <time>2023-03-07T08:38:25Z</time>
      </trkpt>
      <trkpt lat="48.67779" lon="1.81941">
        <ele>171.1</ele>
        <time>2023-03-07T08:38:32Z</time>
      </trkpt>
      <trkpt lat="48.67777" lon="1.81927">
        <ele>170.8</ele>
        <time>2023-03-07T08:38:40Z</time>
      </trkpt>
      <trkpt lat="48.67771" lon="1.81916">
        <ele>169.7</ele>
        <time>2023-03-07T08:38:48Z</time>
      </trkpt>
      <trkpt lat="48.67768" lon="1.81902">
        <ele>169.4</ele>
        <time>2023-03-07T08:38:54Z</time>
      </trkpt>
      <trkpt lat="48.67766" lon="1.81888">
        <ele>169.2</ele>
        <time>2023-03-07T08:39:00Z</time>
      </trkpt>
      <trkpt lat="48.67765" lon="1.81873">
        <ele>169.2</ele>
        <time>2023-03-07T08:39:07Z</time>
      </trkpt>
      <trkpt lat="48.67765" lon="1.81858">
        <ele>169.1</ele>
        <time>2023-03-07T08:39:14Z</time>
      </trkpt>
      <trkpt lat="48.67762" lon="1.81844">
        <ele>168.8</ele>
        <time>2023-03-07T08:39:21Z</time>
      </trkpt>
      <trkpt lat="48.67761" lon="1.81829">
        <ele>168.6</ele>
        <time>2023-03-07T08:39:28Z</time>
      </trkpt>
      <trkpt lat="48.67763" lon="1.81815">
        <ele>168.9</ele>
        <time>2023-03-07T08:39:36Z</time>
      </trkpt>
      <trkpt lat="48.67764" lon="1.81799">
        <ele>168.9</ele>
        <time>2023-03-07T08:39:43Z</time>
      </trkpt>
      <trkpt lat="48.67765" lon="1.81785">
        <ele>168.8</ele>
        <time>2023-03-07T08:39:51Z</time>
      </trkpt>
      <trkpt lat="48.67765" lon="1.81771">
        <ele>168.7</ele>
        <time>2023-03-07T08:39:59Z</time>
      </trkpt>
      <trkpt lat="48.67766" lon="1.81757">
        <ele>168.8</ele>
        <time>2023-03-07T08:40:06Z</time>
      </trkpt>
      <trkpt lat="48.67767" lon="1.81742">
        <ele>169.1</ele>
        <time>2023-03-07T08:40:14Z</time>
      </trkpt>
      <trkpt lat="48.67769" lon="1.81728">
        <ele>169.4</ele>
        <time>2023-03-07T08:40:22Z</time>
      </trkpt>
      <trkpt lat="48.67771" lon="1.81715">
        <ele>169.7</ele>
        <time>2023-03-07T08:40:29Z</time>
      </trkpt>
      <trkpt lat="48.67771" lon="1.817">
        <ele>169.4</ele>
        <time>2023-03-07T08:40:36Z</time>
      </trkpt>
      <trkpt lat="48.67771" lon="1.81686">
        <ele>169.3</ele>
        <time>2023-03-07T08:40:43Z</time>
      </trkpt>
      <trkpt lat="48.6777" lon="1.81671">
        <ele>169.4</ele>
        <time>2023-03-07T08:40:49Z</time>
      </trkpt>
      <trkpt lat="48.67768" lon="1.81656">
        <ele>169.4</ele>
        <time>2023-03-07T08:40:57Z</time>
      </trkpt>
      <trkpt lat="48.67768" lon="1.81641">
        <ele>169.6</ele>
        <time>2023-03-07T08:41:05Z</time>
      </trkpt>
      <trkpt lat="48.67768" lon="1.81626">
        <ele>170.1</ele>
        <time>2023-03-07T08:41:12Z</time>
      </trkpt>
      <trkpt lat="48.67768" lon="1.81612">
        <ele>170.6</ele>
        <time>2023-03-07T08:41:21Z</time>
      </trkpt>
      <trkpt lat="48.67768" lon="1.81597">
        <ele>170.5</ele>
        <time>2023-03-07T08:41:30Z</time>
      </trkpt>
      <trkpt lat="48.67767" lon="1.81582">
        <ele>170.2</ele>
        <time>2023-03-07T08:41:39Z</time>
      </trkpt>
      <trkpt lat="48.67767" lon="1.81568">
        <ele>170.1</ele>
        <time>2023-03-07T08:41:47Z</time>
      </trkpt>
      <trkpt lat="48.67766" lon="1.81553">
        <ele>169.8</ele>
        <time>2023-03-07T08:41:56Z</time>
      </trkpt>
      <trkpt lat="48.67762" lon="1.81539">
        <ele>168.8</ele>
        <time>2023-03-07T08:42:03Z</time>
      </trkpt>
      <trkpt lat="48.67759" lon="1.81526">
        <ele>167.8</ele>
        <time>2023-03-07T08:42:11Z</time>
      </trkpt>
      <trkpt lat="48.67757" lon="1.81512">
        <ele>166.8</ele>
        <time>2023-03-07T08:42:23Z</time>
      </trkpt>
      <trkpt lat="48.67754" lon="1.81497">
        <ele>166.1</ele>
        <time>2023-03-07T08:42:30Z</time>
      </trkpt>
      <trkpt lat="48.67755" lon="1.81483">
        <ele>167.1</ele>
        <time>2023-03-07T08:42:37Z</time>
      </trkpt>
      <trkpt lat="48.67755" lon="1.81468">
        <ele>167.8</ele>
        <time>2023-03-07T08:42:45Z</time>
      </trkpt>
      <trkpt lat="48.67761" lon="1.81458">
        <ele>167.7</ele>
        <time>2023-03-07T08:42:52Z</time>
      </trkpt>
      <trkpt lat="48.67767" lon="1.81446">
        <ele>168.2</ele>
        <time>2023-03-07T08:43:00Z</time>
      </trkpt>
      <trkpt lat="48.67772" lon="1.81434">
        <ele>168.9</ele>
        <time>2023-03-07T08:43:07Z</time>
      </trkpt>
      <trkpt lat="48.67776" lon="1.81421">
        <ele>169.7</ele>
        <time>2023-03-07T08:43:14Z</time>
      </trkpt>
      <trkpt lat="48.67779" lon="1.81407">
        <ele>169.8</ele>
        <time>2023-03-07T08:43:22Z</time>
      </trkpt>
      <trkpt lat="48.67785" lon="1.81396">
        <ele>170.2</ele>
        <time>2023-03-07T08:43:30Z</time>
      </trkpt>
      <trkpt lat="48.6779" lon="1.81384">
        <ele>170.5</ele>
        <time>2023-03-07T08:43:37Z</time>
      </trkpt>
      <trkpt lat="48.67794" lon="1.81371">
        <ele>170.3</ele>
        <time>2023-03-07T08:43:45Z</time>
      </trkpt>
      <trkpt lat="48.67797" lon="1.81358">
        <ele>170.2</ele>
        <time>2023-03-07T08:43:54Z</time>
      </trkpt>
      <trkpt lat="48.67804" lon="1.81346">
        <ele>170.7</ele>
        <time>2023-03-07T08:44:00Z</time>
      </trkpt>
      <trkpt lat="48.67809" lon="1.81334">
        <ele>170.4</ele>
        <time>2023-03-07T08:44:06Z</time>
      </trkpt>
      <trkpt lat="48.67817" lon="1.81326">
        <ele>170.8</ele>
        <time>2023-03-07T08:44:15Z</time>
      </trkpt>
      <trkpt lat="48.67824" lon="1.81315">
        <ele>171.1</ele>
        <time>2023-03-07T08:44:23Z</time>
      </trkpt>
      <trkpt lat="48.67832" lon="1.81306">
        <ele>171.7</ele>
        <time>2023-03-07T08:44:31Z</time>
      </trkpt>
      <trkpt lat="48.67839" lon="1.81296">
        <ele>171.2</ele>
        <time>2023-03-07T08:44:38Z</time>
      </trkpt>
      <trkpt lat="48.67848" lon="1.81288">
        <ele>171</ele>
        <time>2023-03-07T08:44:45Z</time>
      </trkpt>
      <trkpt lat="48.67857" lon="1.81285">
        <ele>171.3</ele>
        <time>2023-03-07T08:44:52Z</time>
      </trkpt>
      <trkpt lat="48.67866" lon="1.81284">
        <ele>171.6</ele>
        <time>2023-03-07T08:45:03Z</time>
      </trkpt>
      <trkpt lat="48.67875" lon="1.81282">
        <ele>171.8</ele>
        <time>2023-03-07T08:45:11Z</time>
      </trkpt>
      <trkpt lat="48.67885" lon="1.81281">
        <ele>172</ele>
        <time>2023-03-07T08:45:19Z</time>
      </trkpt>
      <trkpt lat="48.67896" lon="1.81278">
        <ele>172</ele>
        <time>2023-03-07T08:45:26Z</time>
      </trkpt>
      <trkpt lat="48.67905" lon="1.81278">
        <ele>172</ele>
        <time>2023-03-07T08:45:33Z</time>
      </trkpt>
      <trkpt lat="48.67914" lon="1.81281">
        <ele>172.2</ele>
        <time>2023-03-07T08:45:41Z</time>
      </trkpt>
      <trkpt lat="48.67923" lon="1.81283">
        <ele>172.6</ele>
        <time>2023-03-07T08:45:49Z</time>
      </trkpt>
      <trkpt lat="48.67933" lon="1.81281">
        <ele>172.8</ele>
        <time>2023-03-07T08:45:56Z</time>
      </trkpt>
      <trkpt lat="48.67942" lon="1.81277">
        <ele>172.8</ele>
        <time>2023-03-07T08:46:02Z</time>
      </trkpt>
      <trkpt lat="48.67951" lon="1.81278">
        <ele>172.7</ele>
        <time>2023-03-07T08:46:09Z</time>
      </trkpt>
      <trkpt lat="48.67961" lon="1.8128">
        <ele>172.5</ele>
        <time>2023-03-07T08:46:18Z</time>
      </trkpt>
      <trkpt lat="48.67972" lon="1.81281">
        <ele>172.3</ele>
        <time>2023-03-07T08:46:24Z</time>
      </trkpt>
      <trkpt lat="48.67982" lon="1.81284">
        <ele>172.2</ele>
        <time>2023-03-07T08:46:31Z</time>
      </trkpt>
      <trkpt lat="48.67991" lon="1.81287">
        <ele>172.2</ele>
        <time>2023-03-07T08:46:36Z</time>
      </trkpt>
      <trkpt lat="48.68002" lon="1.81288">
        <ele>171.9</ele>
        <time>2023-03-07T08:46:43Z</time>
      </trkpt>
      <trkpt lat="48.68011" lon="1.81289">
        <ele>171.6</ele>
        <time>2023-03-07T08:46:51Z</time>
      </trkpt>
      <trkpt lat="48.68021" lon="1.81294">
        <ele>171.6</ele>
        <time>2023-03-07T08:47:01Z</time>
      </trkpt>
      <trkpt lat="48.6803" lon="1.81299">
        <ele>171.9</ele>
        <time>2023-03-07T08:47:10Z</time>
      </trkpt>
      <trkpt lat="48.68039" lon="1.81301">
        <ele>171.9</ele>
        <time>2023-03-07T08:47:18Z</time>
      </trkpt>
      <trkpt lat="48.68049" lon="1.813">
        <ele>171.4</ele>
        <time>2023-03-07T08:47:29Z</time>
      </trkpt>
      <trkpt lat="48.68059" lon="1.81299">
        <ele>171.2</ele>
        <time>2023-03-07T08:47:37Z</time>
      </trkpt>
      <trkpt lat="48.68069" lon="1.81297">
        <ele>171</ele>
        <time>2023-03-07T08:47:43Z</time>
      </trkpt>
      <trkpt lat="48.68078" lon="1.81296">
        <ele>171.2</ele>
        <time>2023-03-07T08:47:54Z</time>
      </trkpt>
      <trkpt lat="48.68087" lon="1.81303">
        <ele>172.5</ele>
        <time>2023-03-07T08:48:02Z</time>
      </trkpt>
      <trkpt lat="48.68096" lon="1.81302">
        <ele>172.4</ele>
        <time>2023-03-07T08:48:08Z</time>
      </trkpt>
      <trkpt lat="48.68105" lon="1.81301">
        <ele>172.2</ele>
        <time>2023-03-07T08:48:16Z</time>
      </trkpt>
      <trkpt lat="48.68115" lon="1.81298">
        <ele>171.7</ele>
        <time>2023-03-07T08:48:25Z</time>
      </trkpt>
      <trkpt lat="48.68124" lon="1.81292">
        <ele>170.5</ele>
        <time>2023-03-07T08:48:37Z</time>
      </trkpt>
      <trkpt lat="48.68133" lon="1.81288">
        <ele>169.9</ele>
        <time>2023-03-07T08:48:48Z</time>
      </trkpt>
      <trkpt lat="48.68143" lon="1.81288">
        <ele>169.9</ele>
        <time>2023-03-07T08:48:55Z</time>
      </trkpt>
      <trkpt lat="48.68152" lon="1.81288">
        <ele>170.1</ele>
        <time>2023-03-07T08:49:03Z</time>
      </trkpt>
      <trkpt lat="48.68162" lon="1.81287">
        <ele>170.1</ele>
        <time>2023-03-07T08:49:12Z</time>
      </trkpt>
      <trkpt lat="48.68172" lon="1.81284">
        <ele>170.1</ele>
        <time>2023-03-07T08:49:19Z</time>
      </trkpt>
      <trkpt lat="48.68182" lon="1.81282">
        <ele>170.1</ele>
        <time>2023-03-07T08:49:27Z</time>
      </trkpt>
      <trkpt lat="48.6819" lon="1.81274">
        <ele>169.4</ele>
        <time>2023-03-07T08:49:35Z</time>
      </trkpt>
      <trkpt lat="48.68199" lon="1.81271">
        <ele>169.5</ele>
        <time>2023-03-07T08:49:44Z</time>
      </trkpt>
      <trkpt lat="48.68209" lon="1.81271">
        <ele>170.2</ele>
        <time>2023-03-07T08:49:53Z</time>
      </trkpt>
      <trkpt lat="48.68218" lon="1.81274">
        <ele>171.2</ele>
        <time>2023-03-07T08:50:02Z</time>
      </trkpt>
      <trkpt lat="48.68227" lon="1.81274">
        <ele>171.7</ele>
        <time>2023-03-07T08:50:10Z</time>
      </trkpt>
      <trkpt lat="48.68237" lon="1.8127">
        <ele>171.4</ele>
        <time>2023-03-07T08:50:16Z</time>
      </trkpt>
      <trkpt lat="48.68246" lon="1.81271">
        <ele>171.8</ele>
        <time>2023-03-07T08:50:24Z</time>
      </trkpt>
      <trkpt lat="48.68256" lon="1.81273">
        <ele>172.6</ele>
        <time>2023-03-07T08:50:33Z</time>
      </trkpt>
      <trkpt lat="48.68266" lon="1.81272">
        <ele>173</ele>
        <time>2023-03-07T08:50:42Z</time>
      </trkpt>
      <trkpt lat="48.68275" lon="1.81268">
        <ele>173.1</ele>
        <time>2023-03-07T08:50:50Z</time>
      </trkpt>
      <trkpt lat="48.68284" lon="1.81263">
        <ele>172.9</ele>
        <time>2023-03-07T08:50:57Z</time>
      </trkpt>
      <trkpt lat="48.68293" lon="1.81258">
        <ele>172.6</ele>
        <time>2023-03-07T08:51:04Z</time>
      </trkpt>
      <trkpt lat="48.68303" lon="1.81258">
        <ele>172.6</ele>
        <time>2023-03-07T08:51:12Z</time>
      </trkpt>
      <trkpt lat="48.68312" lon="1.81257">
        <ele>172.7</ele>
        <time>2023-03-07T08:51:20Z</time>
      </trkpt>
      <trkpt lat="48.6832" lon="1.81249">
        <ele>172.4</ele>
        <time>2023-03-07T08:51:29Z</time>
      </trkpt>
      <trkpt lat="48.68328" lon="1.8124">
        <ele>171.7</ele>
        <time>2023-03-07T08:51:37Z</time>
      </trkpt>
      <trkpt lat="48.68338" lon="1.81236">
        <ele>171.4</ele>
        <time>2023-03-07T08:51:48Z</time>
      </trkpt>
      <trkpt lat="48.68348" lon="1.81236">
        <ele>171.2</ele>
        <time>2023-03-07T08:51:56Z</time>
      </trkpt>
      <trkpt lat="48.68356" lon="1.81243">
        <ele>172</ele>
        <time>2023-03-07T08:52:08Z</time>
      </trkpt>
      <trkpt lat="48.68365" lon="1.81243">
        <ele>172</ele>
        <time>2023-03-07T08:52:17Z</time>
      </trkpt>
      <trkpt lat="48.68374" lon="1.81236">
        <ele>171.2</ele>
        <time>2023-03-07T08:52:25Z</time>
      </trkpt>
      <trkpt lat="48.68383" lon="1.81231">
        <ele>170.7</ele>
        <time>2023-03-07T08:52:32Z</time>
      </trkpt>
      <trkpt lat="48.68392" lon="1.81228">
        <ele>170.8</ele>
        <time>2023-03-07T08:52:39Z</time>
      </trkpt>
      <trkpt lat="48.68401" lon="1.81224">
        <ele>170.6</ele>
        <time>2023-03-07T08:52:47Z</time>
      </trkpt>
      <trkpt lat="48.68411" lon="1.81222">
        <ele>170.7</ele>
        <time>2023-03-07T08:52:55Z</time>
      </trkpt>
      <trkpt lat="48.6842" lon="1.81218">
        <ele>170.8</ele>
        <time>2023-03-07T08:53:03Z</time>
      </trkpt>
      <trkpt lat="48.68429" lon="1.81212">
        <ele>170.7</ele>
        <time>2023-03-07T08:53:11Z</time>
      </trkpt>
      <trkpt lat="48.68437" lon="1.81206">
        <ele>170.6</ele>
        <time>2023-03-07T08:53:19Z</time>
      </trkpt>
      <trkpt lat="48.68446" lon="1.81198">
        <ele>170.3</ele>
        <time>2023-03-07T08:53:28Z</time>
      </trkpt>
      <trkpt lat="48.68454" lon="1.81191">
        <ele>170.1</ele>
        <time>2023-03-07T08:53:35Z</time>
      </trkpt>
      <trkpt lat="48.68463" lon="1.81193">
        <ele>170.6</ele>
        <time>2023-03-07T08:53:47Z</time>
      </trkpt>
      <trkpt lat="48.68469" lon="1.81204">
        <ele>171.3</ele>
        <time>2023-03-07T08:53:57Z</time>
      </trkpt>
      <trkpt lat="48.68476" lon="1.81214">
        <ele>171.7</ele>
        <time>2023-03-07T08:54:08Z</time>
      </trkpt>
      <trkpt lat="48.68486" lon="1.81213">
        <ele>171.7</ele>
        <time>2023-03-07T08:54:14Z</time>
      </trkpt>
      <trkpt lat="48.68496" lon="1.81211">
        <ele>171.6</ele>
        <time>2023-03-07T08:54:22Z</time>
      </trkpt>
      <trkpt lat="48.68504" lon="1.81201">
        <ele>171.2</ele>
        <time>2023-03-07T08:54:30Z</time>
      </trkpt>
      <trkpt lat="48.68512" lon="1.81192">
        <ele>170.9</ele>
        <time>2023-03-07T08:54:38Z</time>
      </trkpt>
      <trkpt lat="48.68521" lon="1.81196">
        <ele>171.1</ele>
        <time>2023-03-07T08:55:59Z</time>
      </trkpt>
      <trkpt lat="48.6853" lon="1.81196">
        <ele>171</ele>
        <time>2023-03-07T08:59:19Z</time>
      </trkpt>
      <trkpt lat="48.68538" lon="1.8119">
        <ele>170.5</ele>
        <time>2023-03-07T08:59:29Z</time>
      </trkpt>
      <trkpt lat="48.68547" lon="1.81188">
        <ele>170.2</ele>
        <time>2023-03-07T08:59:36Z</time>
      </trkpt>
      <trkpt lat="48.68556" lon="1.81191">
        <ele>170</ele>
        <time>2023-03-07T08:59:45Z</time>
      </trkpt>
      <trkpt lat="48.68561" lon="1.81203">
        <ele>170.3</ele>
        <time>2023-03-07T08:59:52Z</time>
      </trkpt>
      <trkpt lat="48.6857" lon="1.81207">
        <ele>170.7</ele>
        <time>2023-03-07T09:00:00Z</time>
      </trkpt>
      <trkpt lat="48.6858" lon="1.81204">
        <ele>170.6</ele>
        <time>2023-03-07T09:00:07Z</time>
      </trkpt>
      <trkpt lat="48.68589" lon="1.81199">
        <ele>170.5</ele>
        <time>2023-03-07T09:00:16Z</time>
      </trkpt>
      <trkpt lat="48.68598" lon="1.81193">
        <ele>170.5</ele>
        <time>2023-03-07T09:00:24Z</time>
      </trkpt>
      <trkpt lat="48.68606" lon="1.81184">
        <ele>170.5</ele>
        <time>2023-03-07T09:00:31Z</time>
      </trkpt>
      <trkpt lat="48.68614" lon="1.81175">
        <ele>170.4</ele>
        <time>2023-03-07T09:00:38Z</time>
      </trkpt>
      <trkpt lat="48.68618" lon="1.81162">
        <ele>170.1</ele>
        <time>2023-03-07T09:00:44Z</time>
      </trkpt>
      <trkpt lat="48.68624" lon="1.81151">
        <ele>169.9</ele>
        <time>2023-03-07T09:00:51Z</time>
      </trkpt>
      <trkpt lat="48.68631" lon="1.81139">
        <ele>169.7</ele>
        <time>2023-03-07T09:01:00Z</time>
      </trkpt>
      <trkpt lat="48.68637" lon="1.81129">
        <ele>170</ele>
        <time>2023-03-07T09:01:06Z</time>
      </trkpt>
      <trkpt lat="48.68642" lon="1.81117">
        <ele>170.2</ele>
        <time>2023-03-07T09:01:13Z</time>
      </trkpt>
      <trkpt lat="48.68644" lon="1.81103">
        <ele>170.1</ele>
        <time>2023-03-07T09:01:19Z</time>
      </trkpt>
      <trkpt lat="48.6865" lon="1.81091">
        <ele>170.1</ele>
        <time>2023-03-07T09:01:26Z</time>
      </trkpt>
      <trkpt lat="48.68658" lon="1.8108">
        <ele>170.3</ele>
        <time>2023-03-07T09:01:33Z</time>
      </trkpt>
      <trkpt lat="48.68667" lon="1.81076">
        <ele>170.8</ele>
        <time>2023-03-07T09:01:42Z</time>
      </trkpt>
      <trkpt lat="48.68676" lon="1.8107">
        <ele>171.2</ele>
        <time>2023-03-07T09:01:49Z</time>
      </trkpt>
      <trkpt lat="48.68684" lon="1.81065">
        <ele>171.6</ele>
        <time>2023-03-07T09:01:57Z</time>
      </trkpt>
      <trkpt lat="48.68693" lon="1.81059">
        <ele>172</ele>
        <time>2023-03-07T09:02:04Z</time>
      </trkpt>
      <trkpt lat="48.68703" lon="1.81052">
        <ele>171.9</ele>
        <time>2023-03-07T09:02:12Z</time>
      </trkpt>
      <trkpt lat="48.6871" lon="1.81063">
        <ele>172.3</ele>
        <time>2023-03-07T09:02:23Z</time>
      </trkpt>
      <trkpt lat="48.68713" lon="1.81076">
        <ele>172.7</ele>
        <time>2023-03-07T09:02:33Z</time>
      </trkpt>
      <trkpt lat="48.68721" lon="1.81086">
        <ele>173.1</ele>
        <time>2023-03-07T09:02:43Z</time>
      </trkpt>
      <trkpt lat="48.68727" lon="1.81096">
        <ele>173.4</ele>
        <time>2023-03-07T09:02:52Z</time>
      </trkpt>
      <trkpt lat="48.68732" lon="1.81107">
        <ele>173.6</ele>
        <time>2023-03-07T09:02:59Z</time>
      </trkpt>
      <trkpt lat="48.68733" lon="1.81122">
        <ele>173.8</ele>
        <time>2023-03-07T09:03:08Z</time>
      </trkpt>
      <trkpt lat="48.68736" lon="1.81136">
        <ele>174</ele>
        <time>2023-03-07T09:03:18Z</time>
      </trkpt>
      <trkpt lat="48.68739" lon="1.8115">
        <ele>174</ele>
        <time>2023-03-07T09:03:27Z</time>
      </trkpt>
      <trkpt lat="48.68745" lon="1.81163">
        <ele>174</ele>
        <time>2023-03-07T09:03:34Z</time>
      </trkpt>
      <trkpt lat="48.68752" lon="1.81175">
        <ele>174</ele>
        <time>2023-03-07T09:03:40Z</time>
      </trkpt>
      <trkpt lat="48.68758" lon="1.81188">
        <ele>173.9</ele>
        <time>2023-03-07T09:03:46Z</time>
      </trkpt>
      <trkpt lat="48.68761" lon="1.81201">
        <ele>174</ele>
        <time>2023-03-07T09:03:51Z</time>
      </trkpt>
      <trkpt lat="48.68768" lon="1.81211">
        <ele>174</ele>
        <time>2023-03-07T09:03:58Z</time>
      </trkpt>
      <trkpt lat="48.68775" lon="1.81222">
        <ele>174</ele>
        <time>2023-03-07T09:04:06Z</time>
      </trkpt>
      <trkpt lat="48.68781" lon="1.81234">
        <ele>173.9</ele>
        <time>2023-03-07T09:04:13Z</time>
      </trkpt>
      <trkpt lat="48.68789" lon="1.8124">
        <ele>173.6</ele>
        <time>2023-03-07T09:04:19Z</time>
      </trkpt>
      <trkpt lat="48.68798" lon="1.81246">
        <ele>173.3</ele>
        <time>2023-03-07T09:04:25Z</time>
      </trkpt>
      <trkpt lat="48.68807" lon="1.8125">
        <ele>173</ele>
        <time>2023-03-07T09:04:33Z</time>
      </trkpt>
      <trkpt lat="48.68817" lon="1.81251">
        <ele>173</ele>
        <time>2023-03-07T09:04:40Z</time>
      </trkpt>
      <trkpt lat="48.68826" lon="1.81249">
        <ele>173</ele>
        <time>2023-03-07T09:04:47Z</time>
      </trkpt>
      <trkpt lat="48.68831" lon="1.81235">
        <ele>173</ele>
        <time>2023-03-07T09:04:58Z</time>
      </trkpt>
      <trkpt lat="48.68836" lon="1.81222">
        <ele>173</ele>
        <time>2023-03-07T09:05:08Z</time>
      </trkpt>
      <trkpt lat="48.68836" lon="1.81207">
        <ele>173</ele>
        <time>2023-03-07T09:05:15Z</time>
      </trkpt>
      <trkpt lat="48.6884" lon="1.81194">
        <ele>173</ele>
        <time>2023-03-07T09:05:22Z</time>
      </trkpt>
      <trkpt lat="48.68845" lon="1.81182">
        <ele>172.8</ele>
        <time>2023-03-07T09:05:30Z</time>
      </trkpt>
      <trkpt lat="48.68847" lon="1.81167">
        <ele>172.5</ele>
        <time>2023-03-07T09:05:38Z</time>
      </trkpt>
      <trkpt lat="48.68851" lon="1.81153">
        <ele>172.2</ele>
        <time>2023-03-07T09:05:46Z</time>
      </trkpt>
      <trkpt lat="48.68854" lon="1.81139">
        <ele>172</ele>
        <time>2023-03-07T09:05:54Z</time>
      </trkpt>
      <trkpt lat="48.68857" lon="1.81126">
        <ele>172</ele>
        <time>2023-03-07T09:06:00Z</time>
      </trkpt>
      <trkpt lat="48.6886" lon="1.81112">
        <ele>172</ele>
        <time>2023-03-07T09:06:06Z</time>
      </trkpt>
      <trkpt lat="48.68864" lon="1.81099">
        <ele>172</ele>
        <time>2023-03-07T09:06:13Z</time>
      </trkpt>
      <trkpt lat="48.6887" lon="1.81088">
        <ele>172</ele>
        <time>2023-03-07T09:06:21Z</time>
      </trkpt>
      <trkpt lat="48.68875" lon="1.81075">
        <ele>172.1</ele>
        <time>2023-03-07T09:06:29Z</time>
      </trkpt>
      <trkpt lat="48.68881" lon="1.81063">
        <ele>172.5</ele>
        <time>2023-03-07T09:06:38Z</time>
      </trkpt>
      <trkpt lat="48.68885" lon="1.8105">
        <ele>172.8</ele>
        <time>2023-03-07T09:06:44Z</time>
      </trkpt>
      <trkpt lat="48.68887" lon="1.81036">
        <ele>172.9</ele>
        <time>2023-03-07T09:06:51Z</time>
      </trkpt>
      <trkpt lat="48.68888" lon="1.81022">
        <ele>173</ele>
        <time>2023-03-07T09:06:58Z</time>
      </trkpt>
      <trkpt lat="48.68893" lon="1.8101">
        <ele>173</ele>
        <time>2023-03-07T09:07:06Z</time>
      </trkpt>
      <trkpt lat="48.68896" lon="1.80996">
        <ele>173</ele>
        <time>2023-03-07T09:07:14Z</time>
      </trkpt>
      <trkpt lat="48.68898" lon="1.80982">
        <ele>173.2</ele>
        <time>2023-03-07T09:07:22Z</time>
      </trkpt>
      <trkpt lat="48.689" lon="1.80967">
        <ele>173.4</ele>
        <time>2023-03-07T09:07:29Z</time>
      </trkpt>
      <trkpt lat="48.68905" lon="1.80956">
        <ele>173.6</ele>
        <time>2023-03-07T09:07:38Z</time>
      </trkpt>
      <trkpt lat="48.68908" lon="1.80943">
        <ele>173.7</ele>
        <time>2023-03-07T09:07:45Z</time>
      </trkpt>
      <trkpt lat="48.68912" lon="1.8093">
        <ele>173.9</ele>
        <time>2023-03-07T09:07:54Z</time>
      </trkpt>
      <trkpt lat="48.68916" lon="1.80917">
        <ele>174</ele>
        <time>2023-03-07T09:08:01Z</time>
      </trkpt>
      <trkpt lat="48.68921" lon="1.80906">
        <ele>174</ele>
        <time>2023-03-07T09:08:08Z</time>
      </trkpt>
      <trkpt lat="48.68925" lon="1.80892">
        <ele>174</ele>
        <time>2023-03-07T09:08:15Z</time>
      </trkpt>
      <trkpt lat="48.68932" lon="1.80882">
        <ele>174.1</ele>
        <time>2023-03-07T09:08:26Z</time>
      </trkpt>
      <trkpt lat="48.68933" lon="1.80867">
        <ele>174.5</ele>
        <time>2023-03-07T09:08:34Z</time>
      </trkpt>
      <trkpt lat="48.68935" lon="1.80852">
        <ele>174.8</ele>
        <time>2023-03-07T09:08:41Z</time>
      </trkpt>
      <trkpt lat="48.68936" lon="1.80837">
        <ele>175</ele>
        <time>2023-03-07T09:08:49Z</time>
      </trkpt>
      <trkpt lat="48.68938" lon="1.80824">
        <ele>175</ele>
        <time>2023-03-07T09:08:56Z</time>
      </trkpt>
      <trkpt lat="48.6894" lon="1.8081">
        <ele>175</ele>
        <time>2023-03-07T09:09:03Z</time>
      </trkpt>
      <trkpt lat="48.6894" lon="1.80795">
        <ele>175</ele>
        <time>2023-03-07T09:09:10Z</time>
      </trkpt>
      <trkpt lat="48.68941" lon="1.8078">
        <ele>175</ele>
        <time>2023-03-07T09:09:16Z</time>
      </trkpt>
      <trkpt lat="48.68942" lon="1.80767">
        <ele>175</ele>
        <time>2023-03-07T09:09:23Z</time>
      </trkpt>
      <trkpt lat="48.68946" lon="1.80752">
        <ele>175</ele>
        <time>2023-03-07T09:09:30Z</time>
      </trkpt>
      <trkpt lat="48.68945" lon="1.80737">
        <ele>175</ele>
        <time>2023-03-07T09:09:37Z</time>
      </trkpt>
      <trkpt lat="48.68946" lon="1.80723">
        <ele>175</ele>
        <time>2023-03-07T09:09:43Z</time>
      </trkpt>
      <trkpt lat="48.68949" lon="1.80709">
        <ele>175</ele>
        <time>2023-03-07T09:09:50Z</time>
      </trkpt>
      <trkpt lat="48.6895" lon="1.80695">
        <ele>175</ele>
        <time>2023-03-07T09:09:57Z</time>
      </trkpt>
      <trkpt lat="48.68951" lon="1.8068">
        <ele>175</ele>
        <time>2023-03-07T09:10:04Z</time>
      </trkpt>
      <trkpt lat="48.68952" lon="1.80664">
        <ele>175</ele>
        <time>2023-03-07T09:10:10Z</time>
      </trkpt>
      <trkpt lat="48.68953" lon="1.8065">
        <ele>175</ele>
        <time>2023-03-07T09:10:16Z</time>
      </trkpt>
      <trkpt lat="48.68953" lon="1.80636">
        <ele>175</ele>
        <time>2023-03-07T09:10:22Z</time>
      </trkpt>
      <trkpt lat="48.68953" lon="1.8062">
        <ele>175</ele>
        <time>2023-03-07T09:10:29Z</time>
      </trkpt>
      <trkpt lat="48.68955" lon="1.80607">
        <ele>175</ele>
        <time>2023-03-07T09:10:37Z</time>
      </trkpt>
      <trkpt lat="48.68956" lon="1.80592">
        <ele>175</ele>
        <time>2023-03-07T09:10:45Z</time>
      </trkpt>
      <trkpt lat="48.6896" lon="1.80579">
        <ele>175</ele>
        <time>2023-03-07T09:10:51Z</time>
      </trkpt>
      <trkpt lat="48.68962" lon="1.80564">
        <ele>175</ele>
        <time>2023-03-07T09:10:57Z</time>
      </trkpt>
      <trkpt lat="48.68963" lon="1.8055">
        <ele>175</ele>
        <time>2023-03-07T09:11:03Z</time>
      </trkpt>
      <trkpt lat="48.68962" lon="1.80535">
        <ele>175</ele>
        <time>2023-03-07T09:11:09Z</time>
      </trkpt>
      <trkpt lat="48.68962" lon="1.80521">
        <ele>175</ele>
        <time>2023-03-07T09:11:16Z</time>
      </trkpt>
      <trkpt lat="48.68963" lon="1.80506">
        <ele>175</ele>
        <time>2023-03-07T09:11:22Z</time>
      </trkpt>
      <trkpt lat="48.68966" lon="1.80493">
        <ele>175</ele>
        <time>2023-03-07T09:11:30Z</time>
      </trkpt>
      <trkpt lat="48.68968" lon="1.80478">
        <ele>175</ele>
        <time>2023-03-07T09:11:38Z</time>
      </trkpt>
      <trkpt lat="48.68969" lon="1.80464">
        <ele>175</ele>
        <time>2023-03-07T09:11:45Z</time>
      </trkpt>
      <trkpt lat="48.68971" lon="1.80448">
        <ele>175</ele>
        <time>2023-03-07T09:11:52Z</time>
      </trkpt>
      <trkpt lat="48.68971" lon="1.80433">
        <ele>175</ele>
        <time>2023-03-07T09:12:00Z</time>
      </trkpt>
      <trkpt lat="48.68972" lon="1.80417">
        <ele>175</ele>
        <time>2023-03-07T09:12:07Z</time>
      </trkpt>
      <trkpt lat="48.68973" lon="1.80402">
        <ele>175</ele>
        <time>2023-03-07T09:12:14Z</time>
      </trkpt>
      <trkpt lat="48.68975" lon="1.80388">
        <ele>175</ele>
        <time>2023-03-07T09:12:22Z</time>
      </trkpt>
      <trkpt lat="48.68978" lon="1.80374">
        <ele>175</ele>
        <time>2023-03-07T09:12:30Z</time>
      </trkpt>
      <trkpt lat="48.68979" lon="1.8036">
        <ele>175</ele>
        <time>2023-03-07T09:12:36Z</time>
      </trkpt>
      <trkpt lat="48.6898" lon="1.80345">
        <ele>175</ele>
        <time>2023-03-07T09:12:43Z</time>
      </trkpt>
      <trkpt lat="48.6898" lon="1.80332">
        <ele>175</ele>
        <time>2023-03-07T09:12:51Z</time>
      </trkpt>
      <trkpt lat="48.68981" lon="1.80317">
        <ele>175</ele>
        <time>2023-03-07T09:12:58Z</time>
      </trkpt>
      <trkpt lat="48.68984" lon="1.80304">
        <ele>175</ele>
        <time>2023-03-07T09:13:08Z</time>
      </trkpt>
      <trkpt lat="48.68986" lon="1.8029">
        <ele>175</ele>
        <time>2023-03-07T09:13:16Z</time>
      </trkpt>
      <trkpt lat="48.68988" lon="1.80274">
        <ele>175</ele>
        <time>2023-03-07T09:13:24Z</time>
      </trkpt>
      <trkpt lat="48.6899" lon="1.80261">
        <ele>175</ele>
        <time>2023-03-07T09:13:31Z</time>
      </trkpt>
      <trkpt lat="48.68991" lon="1.80247">
        <ele>175.1</ele>
        <time>2023-03-07T09:13:39Z</time>
      </trkpt>
      <trkpt lat="48.68992" lon="1.80232">
        <ele>175.5</ele>
        <time>2023-03-07T09:13:46Z</time>
      </trkpt>
      <trkpt lat="48.68994" lon="1.80217">
        <ele>175.8</ele>
        <time>2023-03-07T09:13:53Z</time>
      </trkpt>
      <trkpt lat="48.68997" lon="1.80202">
        <ele>175.9</ele>
        <time>2023-03-07T09:14:00Z</time>
      </trkpt>
      <trkpt lat="48.68998" lon="1.80187">
        <ele>176</ele>
        <time>2023-03-07T09:14:07Z</time>
      </trkpt>
      <trkpt lat="48.68998" lon="1.80173">
        <ele>176</ele>
        <time>2023-03-07T09:14:14Z</time>
      </trkpt>
      <trkpt lat="48.68989" lon="1.80169">
        <ele>176</ele>
        <time>2023-03-07T09:15:26Z</time>
      </trkpt>
      <trkpt lat="48.6898" lon="1.80172">
        <ele>175.9</ele>
        <time>2023-03-07T09:15:36Z</time>
      </trkpt>
      <trkpt lat="48.6897" lon="1.80173">
        <ele>175.8</ele>
        <time>2023-03-07T09:15:44Z</time>
      </trkpt>
      <trkpt lat="48.68962" lon="1.80179">
        <ele>175.6</ele>
        <time>2023-03-07T09:15:53Z</time>
      </trkpt>
      <trkpt lat="48.68954" lon="1.80186">
        <ele>175.3</ele>
        <time>2023-03-07T09:16:01Z</time>
      </trkpt>
      <trkpt lat="48.68944" lon="1.80192">
        <ele>175.1</ele>
        <time>2023-03-07T09:16:11Z</time>
      </trkpt>
      <trkpt lat="48.68935" lon="1.80194">
        <ele>175</ele>
        <time>2023-03-07T09:16:16Z</time>
      </trkpt>
      <trkpt lat="48.68926" lon="1.80199">
        <ele>175</ele>
        <time>2023-03-07T09:16:22Z</time>
      </trkpt>
      <trkpt lat="48.68916" lon="1.80206">
        <ele>175</ele>
        <time>2023-03-07T09:16:29Z</time>
      </trkpt>
      <trkpt lat="48.68907" lon="1.80207">
        <ele>175</ele>
        <time>2023-03-07T09:16:35Z</time>
      </trkpt>
      <trkpt lat="48.68897" lon="1.80212">
        <ele>175</ele>
        <time>2023-03-07T09:16:42Z</time>
      </trkpt>
      <trkpt lat="48.68888" lon="1.80212">
        <ele>175</ele>
        <time>2023-03-07T09:16:50Z</time>
      </trkpt>
      <trkpt lat="48.68878" lon="1.8021">
        <ele>175</ele>
        <time>2023-03-07T09:16:58Z</time>
      </trkpt>
      <trkpt lat="48.68868" lon="1.80214">
        <ele>175</ele>
        <time>2023-03-07T09:17:05Z</time>
      </trkpt>
      <trkpt lat="48.68859" lon="1.80214">
        <ele>175</ele>
        <time>2023-03-07T09:17:12Z</time>
      </trkpt>
      <trkpt lat="48.68849" lon="1.80215">
        <ele>175</ele>
        <time>2023-03-07T09:17:18Z</time>
      </trkpt>
      <trkpt lat="48.68839" lon="1.80216">
        <ele>175</ele>
        <time>2023-03-07T09:17:24Z</time>
      </trkpt>
      <trkpt lat="48.6883" lon="1.80213">
        <ele>175.1</ele>
        <time>2023-03-07T09:17:31Z</time>
      </trkpt>
      <trkpt lat="48.68821" lon="1.80218">
        <ele>175.4</ele>
        <time>2023-03-07T09:17:39Z</time>
      </trkpt>
      <trkpt lat="48.68811" lon="1.8022">
        <ele>175.8</ele>
        <time>2023-03-07T09:17:47Z</time>
      </trkpt>
      <trkpt lat="48.68802" lon="1.8022">
        <ele>176</ele>
        <time>2023-03-07T09:17:54Z</time>
      </trkpt>
      <trkpt lat="48.68793" lon="1.80223">
        <ele>176</ele>
        <time>2023-03-07T09:18:02Z</time>
      </trkpt>
      <trkpt lat="48.68785" lon="1.80229">
        <ele>175.9</ele>
        <time>2023-03-07T09:18:08Z</time>
      </trkpt>
      <trkpt lat="48.68776" lon="1.80239">
        <ele>176</ele>
        <time>2023-03-07T09:18:15Z</time>
      </trkpt>
      <trkpt lat="48.68768" lon="1.80247">
        <ele>176</ele>
        <time>2023-03-07T09:18:20Z</time>
      </trkpt>
      <trkpt lat="48.68764" lon="1.80259">
        <ele>175.8</ele>
        <time>2023-03-07T09:18:30Z</time>
      </trkpt>
      <trkpt lat="48.68756" lon="1.80269">
        <ele>175.9</ele>
        <time>2023-03-07T09:18:38Z</time>
      </trkpt>
      <trkpt lat="48.68747" lon="1.80277">
        <ele>176</ele>
        <time>2023-03-07T09:18:46Z</time>
      </trkpt>
      <trkpt lat="48.68739" lon="1.80282">
        <ele>176</ele>
        <time>2023-03-07T09:18:51Z</time>
      </trkpt>
      <trkpt lat="48.6873" lon="1.80288">
        <ele>176</ele>
        <time>2023-03-07T09:18:57Z</time>
      </trkpt>
      <trkpt lat="48.6872" lon="1.80292">
        <ele>176</ele>
        <time>2023-03-07T09:19:04Z</time>
      </trkpt>
      <trkpt lat="48.68711" lon="1.80293">
        <ele>176</ele>
        <time>2023-03-07T09:19:11Z</time>
      </trkpt>
      <trkpt lat="48.68703" lon="1.80299">
        <ele>176</ele>
        <time>2023-03-07T09:19:17Z</time>
      </trkpt>
      <trkpt lat="48.68694" lon="1.80303">
        <ele>176</ele>
        <time>2023-03-07T09:19:24Z</time>
      </trkpt>
      <trkpt lat="48.68685" lon="1.80306">
        <ele>176</ele>
        <time>2023-03-07T09:19:31Z</time>
      </trkpt>
      <trkpt lat="48.68675" lon="1.80306">
        <ele>176</ele>
        <time>2023-03-07T09:19:37Z</time>
      </trkpt>
      <trkpt lat="48.68664" lon="1.80304">
        <ele>176</ele>
        <time>2023-03-07T09:19:43Z</time>
      </trkpt>
      <trkpt lat="48.68656" lon="1.80299">
        <ele>176</ele>
        <time>2023-03-07T09:19:49Z</time>
      </trkpt>
      <trkpt lat="48.68646" lon="1.80297">
        <ele>176</ele>
        <time>2023-03-07T09:19:56Z</time>
      </trkpt>
      <trkpt lat="48.68637" lon="1.80291">
        <ele>176</ele>
        <time>2023-03-07T09:20:03Z</time>
      </trkpt>
      <trkpt lat="48.68628" lon="1.80293">
        <ele>176</ele>
        <time>2023-03-07T09:20:10Z</time>
      </trkpt>
      <trkpt lat="48.6862" lon="1.80288">
        <ele>176</ele>
        <time>2023-03-07T09:20:16Z</time>
      </trkpt>
      <trkpt lat="48.6861" lon="1.80285">
        <ele>176</ele>
        <time>2023-03-07T09:20:23Z</time>
      </trkpt>
      <trkpt lat="48.68605" lon="1.80297">
        <ele>176</ele>
        <time>2023-03-07T09:20:32Z</time>
      </trkpt>
      <trkpt lat="48.68602" lon="1.80312">
        <ele>176</ele>
        <time>2023-03-07T09:20:40Z</time>
      </trkpt>
      <trkpt lat="48.68599" lon="1.80327">
        <ele>176</ele>
        <time>2023-03-07T09:20:48Z</time>
      </trkpt>
      <trkpt lat="48.68595" lon="1.80339">
        <ele>176</ele>
        <time>2023-03-07T09:20:55Z</time>
      </trkpt>
      <trkpt lat="48.68591" lon="1.80352">
        <ele>176</ele>
        <time>2023-03-07T09:21:04Z</time>
      </trkpt>
      <trkpt lat="48.68593" lon="1.80367">
        <ele>176</ele>
        <time>2023-03-07T09:21:11Z</time>
      </trkpt>
      <trkpt lat="48.6859" lon="1.80381">
        <ele>176</ele>
        <time>2023-03-07T09:21:18Z</time>
      </trkpt>
      <trkpt lat="48.68586" lon="1.80395">
        <ele>176</ele>
        <time>2023-03-07T09:21:25Z</time>
      </trkpt>
      <trkpt lat="48.68583" lon="1.80408">
        <ele>176</ele>
        <time>2023-03-07T09:21:30Z</time>
      </trkpt>
      <trkpt lat="48.68578" lon="1.80421">
        <ele>176</ele>
        <time>2023-03-07T09:21:36Z</time>
      </trkpt>
      <trkpt lat="48.68577" lon="1.80435">
        <ele>176</ele>
        <time>2023-03-07T09:21:42Z</time>
      </trkpt>
      <trkpt lat="48.68576" lon="1.80449">
        <ele>175.9</ele>
        <time>2023-03-07T09:21:50Z</time>
      </trkpt>
      <trkpt lat="48.68574" lon="1.80464">
        <ele>175.5</ele>
        <time>2023-03-07T09:21:58Z</time>
      </trkpt>
      <trkpt lat="48.68576" lon="1.80477">
        <ele>175.3</ele>
        <time>2023-03-07T09:22:05Z</time>
      </trkpt>
      <trkpt lat="48.68573" lon="1.80491">
        <ele>175.4</ele>
        <time>2023-03-07T09:22:14Z</time>
      </trkpt>
      <trkpt lat="48.6857" lon="1.80505">
        <ele>175.5</ele>
        <time>2023-03-07T09:22:21Z</time>
      </trkpt>
      <trkpt lat="48.68568" lon="1.8052">
        <ele>175.5</ele>
        <time>2023-03-07T09:22:28Z</time>
      </trkpt>
      <trkpt lat="48.68566" lon="1.80534">
        <ele>175.7</ele>
        <time>2023-03-07T09:22:34Z</time>
      </trkpt>
      <trkpt lat="48.68567" lon="1.80549">
        <ele>175.9</ele>
        <time>2023-03-07T09:22:41Z</time>
      </trkpt>
      <trkpt lat="48.68567" lon="1.80563">
        <ele>176</ele>
        <time>2023-03-07T09:22:48Z</time>
      </trkpt>
      <trkpt lat="48.68566" lon="1.80578">
        <ele>176</ele>
        <time>2023-03-07T09:22:54Z</time>
      </trkpt>
      <trkpt lat="48.68564" lon="1.80591">
        <ele>176</ele>
        <time>2023-03-07T09:23:00Z</time>
      </trkpt>
      <trkpt lat="48.6856" lon="1.80606">
        <ele>176</ele>
        <time>2023-03-07T09:23:07Z</time>
      </trkpt>
      <trkpt lat="48.6856" lon="1.8062">
        <ele>176</ele>
        <time>2023-03-07T09:23:14Z</time>
      </trkpt>
      <trkpt lat="48.6856" lon="1.80636">
        <ele>176</ele>
        <time>2023-03-07T09:23:21Z</time>
      </trkpt>
      <trkpt lat="48.68559" lon="1.8065">
        <ele>176</ele>
        <time>2023-03-07T09:23:28Z</time>
      </trkpt>
      <trkpt lat="48.68559" lon="1.80666">
        <ele>176</ele>
        <time>2023-03-07T09:23:35Z</time>
      </trkpt>
      <trkpt lat="48.68561" lon="1.80681">
        <ele>176</ele>
        <time>2023-03-07T09:23:40Z</time>
      </trkpt>
      <trkpt lat="48.68563" lon="1.80694">
        <ele>176</ele>
        <time>2023-03-07T09:23:45Z</time>
      </trkpt>
      <trkpt lat="48.68562" lon="1.80709">
        <ele>175.9</ele>
        <time>2023-03-07T09:23:52Z</time>
      </trkpt>
      <trkpt lat="48.68563" lon="1.80723">
        <ele>175.7</ele>
        <time>2023-03-07T09:23:57Z</time>
      </trkpt>
      <trkpt lat="48.68563" lon="1.80737">
        <ele>175.7</ele>
        <time>2023-03-07T09:24:03Z</time>
      </trkpt>
      <trkpt lat="48.68562" lon="1.80752">
        <ele>175.8</ele>
        <time>2023-03-07T09:24:10Z</time>
      </trkpt>
      <trkpt lat="48.68559" lon="1.80767">
        <ele>175.9</ele>
        <time>2023-03-07T09:24:18Z</time>
      </trkpt>
      <trkpt lat="48.68556" lon="1.80781">
        <ele>176</ele>
        <time>2023-03-07T09:24:25Z</time>
      </trkpt>
      <trkpt lat="48.68556" lon="1.80796">
        <ele>176</ele>
        <time>2023-03-07T09:24:33Z</time>
      </trkpt>
      <trkpt lat="48.68555" lon="1.80811">
        <ele>176</ele>
        <time>2023-03-07T09:24:40Z</time>
      </trkpt>
      <trkpt lat="48.68553" lon="1.80825">
        <ele>175.9</ele>
        <time>2023-03-07T09:24:48Z</time>
      </trkpt>
      <trkpt lat="48.68549" lon="1.8084">
        <ele>175.6</ele>
        <time>2023-03-07T09:24:56Z</time>
      </trkpt>
      <trkpt lat="48.68547" lon="1.80856">
        <ele>175.1</ele>
        <time>2023-03-07T09:25:03Z</time>
      </trkpt>
      <trkpt lat="48.68545" lon="1.8087">
        <ele>175</ele>
        <time>2023-03-07T09:25:11Z</time>
      </trkpt>
      <trkpt lat="48.68542" lon="1.80883">
        <ele>175</ele>
        <time>2023-03-07T09:25:19Z</time>
      </trkpt>
      <trkpt lat="48.68541" lon="1.80897">
        <ele>175</ele>
        <time>2023-03-07T09:25:26Z</time>
      </trkpt>
      <trkpt lat="48.68538" lon="1.80912">
        <ele>175</ele>
        <time>2023-03-07T09:25:34Z</time>
      </trkpt>
      <trkpt lat="48.68535" lon="1.80926">
        <ele>175</ele>
        <time>2023-03-07T09:25:42Z</time>
      </trkpt>
      <trkpt lat="48.68535" lon="1.80942">
        <ele>175</ele>
        <time>2023-03-07T09:25:49Z</time>
      </trkpt>
      <trkpt lat="48.68531" lon="1.80956">
        <ele>175</ele>
        <time>2023-03-07T09:25:56Z</time>
      </trkpt>
      <trkpt lat="48.6853" lon="1.8097">
        <ele>175</ele>
        <time>2023-03-07T09:26:02Z</time>
      </trkpt>
      <trkpt lat="48.68527" lon="1.80984">
        <ele>175</ele>
        <time>2023-03-07T09:26:08Z</time>
      </trkpt>
      <trkpt lat="48.68526" lon="1.80998">
        <ele>175</ele>
        <time>2023-03-07T09:26:16Z</time>
      </trkpt>
      <trkpt lat="48.68525" lon="1.81013">
        <ele>175</ele>
        <time>2023-03-07T09:26:23Z</time>
      </trkpt>
      <trkpt lat="48.68526" lon="1.81029">
        <ele>174.9</ele>
        <time>2023-03-07T09:26:31Z</time>
      </trkpt>
      <trkpt lat="48.68527" lon="1.81042">
        <ele>174.5</ele>
        <time>2023-03-07T09:26:37Z</time>
      </trkpt>
      <trkpt lat="48.68526" lon="1.81058">
        <ele>173.9</ele>
        <time>2023-03-07T09:26:44Z</time>
      </trkpt>
      <trkpt lat="48.68528" lon="1.81071">
        <ele>173.4</ele>
        <time>2023-03-07T09:26:49Z</time>
      </trkpt>
      <trkpt lat="48.6853" lon="1.81087">
        <ele>172.9</ele>
        <time>2023-03-07T09:26:54Z</time>
      </trkpt>
      <trkpt lat="48.68527" lon="1.81101">
        <ele>172.3</ele>
        <time>2023-03-07T09:27:01Z</time>
      </trkpt>
      <trkpt lat="48.68517" lon="1.81101">
        <ele>172</ele>
        <time>2023-03-07T09:27:14Z</time>
      </trkpt>
      <trkpt lat="48.68507" lon="1.81101">
        <ele>171.6</ele>
        <time>2023-03-07T09:27:25Z</time>
      </trkpt>
      <trkpt lat="48.68498" lon="1.81104">
        <ele>171.3</ele>
        <time>2023-03-07T09:27:39Z</time>
      </trkpt>
      <trkpt lat="48.68488" lon="1.81106">
        <ele>171.3</ele>
        <time>2023-03-07T09:27:48Z</time>
      </trkpt>
      <trkpt lat="48.68479" lon="1.81111">
        <ele>171</ele>
        <time>2023-03-07T09:27:56Z</time>
      </trkpt>
      <trkpt lat="48.6847" lon="1.81111">
        <ele>171.1</ele>
        <time>2023-03-07T09:28:04Z</time>
      </trkpt>
      <trkpt lat="48.68461" lon="1.81112">
        <ele>171.4</ele>
        <time>2023-03-07T09:28:12Z</time>
      </trkpt>
      <trkpt lat="48.68451" lon="1.81114">
        <ele>171.5</ele>
        <time>2023-03-07T09:28:25Z</time>
      </trkpt>
      <trkpt lat="48.68442" lon="1.81119">
        <ele>171.1</ele>
        <time>2023-03-07T09:28:34Z</time>
      </trkpt>
      <trkpt lat="48.68433" lon="1.81124">
        <ele>170.8</ele>
        <time>2023-03-07T09:28:41Z</time>
      </trkpt>
      <trkpt lat="48.68423" lon="1.81124">
        <ele>171</ele>
        <time>2023-03-07T09:28:49Z</time>
      </trkpt>
      <trkpt lat="48.68414" lon="1.81127">
        <ele>171</ele>
        <time>2023-03-07T09:28:56Z</time>
      </trkpt>
      <trkpt lat="48.68404" lon="1.81129">
        <ele>171.5</ele>
        <time>2023-03-07T09:29:03Z</time>
      </trkpt>
      <trkpt lat="48.68394" lon="1.81128">
        <ele>172.1</ele>
        <time>2023-03-07T09:29:10Z</time>
      </trkpt>
      <trkpt lat="48.68385" lon="1.81131">
        <ele>172.3</ele>
        <time>2023-03-07T09:29:16Z</time>
      </trkpt>
      <trkpt lat="48.68376" lon="1.8113">
        <ele>172.3</ele>
        <time>2023-03-07T09:29:25Z</time>
      </trkpt>
      <trkpt lat="48.68367" lon="1.81132">
        <ele>172.3</ele>
        <time>2023-03-07T09:29:33Z</time>
      </trkpt>
      <trkpt lat="48.68358" lon="1.81137">
        <ele>172.1</ele>
        <time>2023-03-07T09:29:39Z</time>
      </trkpt>
      <trkpt lat="48.68348" lon="1.81141">
        <ele>171.8</ele>
        <time>2023-03-07T09:29:45Z</time>
      </trkpt>
      <trkpt lat="48.68339" lon="1.81145">
        <ele>171.4</ele>
        <time>2023-03-07T09:29:52Z</time>
      </trkpt>
      <trkpt lat="48.6833" lon="1.81147">
        <ele>171.1</ele>
        <time>2023-03-07T09:29:58Z</time>
      </trkpt>
      <trkpt lat="48.6832" lon="1.81144">
        <ele>171</ele>
        <time>2023-03-07T09:30:05Z</time>
      </trkpt>
      <trkpt lat="48.6831" lon="1.81145">
        <ele>170.7</ele>
        <time>2023-03-07T09:30:12Z</time>
      </trkpt>
      <trkpt lat="48.68301" lon="1.81151">
        <ele>170.3</ele>
        <time>2023-03-07T09:30:19Z</time>
      </trkpt>
      <trkpt lat="48.68292" lon="1.81152">
        <ele>170.5</ele>
        <time>2023-03-07T09:30:26Z</time>
      </trkpt>
      <trkpt lat="48.68282" lon="1.81157">
        <ele>170.6</ele>
        <time>2023-03-07T09:30:34Z</time>
      </trkpt>
      <trkpt lat="48.68273" lon="1.81158">
        <ele>170.8</ele>
        <time>2023-03-07T09:30:41Z</time>
      </trkpt>
      <trkpt lat="48.68263" lon="1.81157">
        <ele>171.2</ele>
        <time>2023-03-07T09:30:48Z</time>
      </trkpt>
      <trkpt lat="48.68253" lon="1.81158">
        <ele>171.5</ele>
        <time>2023-03-07T09:30:55Z</time>
      </trkpt>
      <trkpt lat="48.68245" lon="1.81162">
        <ele>171.5</ele>
        <time>2023-03-07T09:31:01Z</time>
      </trkpt>
      <trkpt lat="48.68235" lon="1.81164">
        <ele>171.7</ele>
        <time>2023-03-07T09:31:08Z</time>
      </trkpt>
      <trkpt lat="48.68225" lon="1.81166">
        <ele>171.9</ele>
        <time>2023-03-07T09:31:16Z</time>
      </trkpt>
      <trkpt lat="48.68215" lon="1.8117">
        <ele>172</ele>
        <time>2023-03-07T09:31:23Z</time>
      </trkpt>
      <trkpt lat="48.68205" lon="1.81172">
        <ele>172.2</ele>
        <time>2023-03-07T09:31:29Z</time>
      </trkpt>
      <trkpt lat="48.68197" lon="1.81178">
        <ele>172.1</ele>
        <time>2023-03-07T09:31:36Z</time>
      </trkpt>
      <trkpt lat="48.68188" lon="1.8118">
        <ele>172.1</ele>
        <time>2023-03-07T09:31:44Z</time>
      </trkpt>
      <trkpt lat="48.68177" lon="1.81184">
        <ele>172.1</ele>
        <time>2023-03-07T09:31:53Z</time>
      </trkpt>
      <trkpt lat="48.68168" lon="1.81186">
        <ele>172.2</ele>
        <time>2023-03-07T09:31:59Z</time>
      </trkpt>
      <trkpt lat="48.68159" lon="1.81185">
        <ele>172</ele>
        <time>2023-03-07T09:32:05Z</time>
      </trkpt>
      <trkpt lat="48.6815" lon="1.81184">
        <ele>171.8</ele>
        <time>2023-03-07T09:32:16Z</time>
      </trkpt>
      <trkpt lat="48.6814" lon="1.81187">
        <ele>171.3</ele>
        <time>2023-03-07T09:32:23Z</time>
      </trkpt>
      <trkpt lat="48.68131" lon="1.81194">
        <ele>171</ele>
        <time>2023-03-07T09:32:30Z</time>
      </trkpt>
      <trkpt lat="48.68122" lon="1.81194">
        <ele>171</ele>
        <time>2023-03-07T09:32:38Z</time>
      </trkpt>
      <trkpt lat="48.68113" lon="1.81196">
        <ele>171</ele>
        <time>2023-03-07T09:32:44Z</time>
      </trkpt>
      <trkpt lat="48.68102" lon="1.81198">
        <ele>170.8</ele>
        <time>2023-03-07T09:32:51Z</time>
      </trkpt>
      <trkpt lat="48.68093" lon="1.81201">
        <ele>170.6</ele>
        <time>2023-03-07T09:33:00Z</time>
      </trkpt>
      <trkpt lat="48.68084" lon="1.81202">
        <ele>170.5</ele>
        <time>2023-03-07T09:33:09Z</time>
      </trkpt>
      <trkpt lat="48.68075" lon="1.81207">
        <ele>169.9</ele>
        <time>2023-03-07T09:33:18Z</time>
      </trkpt>
      <trkpt lat="48.68065" lon="1.81207">
        <ele>169.8</ele>
        <time>2023-03-07T09:33:27Z</time>
      </trkpt>
      <trkpt lat="48.68056" lon="1.81202">
        <ele>169.7</ele>
        <time>2023-03-07T09:33:34Z</time>
      </trkpt>
      <trkpt lat="48.68046" lon="1.81205">
        <ele>169.5</ele>
        <time>2023-03-07T09:33:41Z</time>
      </trkpt>
      <trkpt lat="48.68037" lon="1.81207">
        <ele>169.3</ele>
        <time>2023-03-07T09:33:48Z</time>
      </trkpt>
      <trkpt lat="48.68027" lon="1.81206">
        <ele>169.1</ele>
        <time>2023-03-07T09:33:55Z</time>
      </trkpt>
      <trkpt lat="48.68017" lon="1.81205">
        <ele>169</ele>
        <time>2023-03-07T09:34:03Z</time>
      </trkpt>
      <trkpt lat="48.68007" lon="1.81203">
        <ele>168.9</ele>
        <time>2023-03-07T09:34:10Z</time>
      </trkpt>
      <trkpt lat="48.67998" lon="1.81197">
        <ele>168.8</ele>
        <time>2023-03-07T09:34:18Z</time>
      </trkpt>
      <trkpt lat="48.6799" lon="1.81191">
        <ele>168.9</ele>
        <time>2023-03-07T09:34:27Z</time>
      </trkpt>
      <trkpt lat="48.6798" lon="1.8119">
        <ele>168.7</ele>
        <time>2023-03-07T09:34:35Z</time>
      </trkpt>
      <trkpt lat="48.6797" lon="1.81189">
        <ele>168.6</ele>
        <time>2023-03-07T09:34:42Z</time>
      </trkpt>
      <trkpt lat="48.67961" lon="1.81185">
        <ele>168.9</ele>
        <time>2023-03-07T09:34:50Z</time>
      </trkpt>
      <trkpt lat="48.67951" lon="1.81186">
        <ele>168.7</ele>
        <time>2023-03-07T09:34:59Z</time>
      </trkpt>
      <trkpt lat="48.67942" lon="1.81179">
        <ele>169.1</ele>
        <time>2023-03-07T09:35:06Z</time>
      </trkpt>
      <trkpt lat="48.67933" lon="1.81175">
        <ele>169.4</ele>
        <time>2023-03-07T09:35:14Z</time>
      </trkpt>
      <trkpt lat="48.67922" lon="1.81172">
        <ele>169.6</ele>
        <time>2023-03-07T09:35:21Z</time>
      </trkpt>
      <trkpt lat="48.67913" lon="1.81169">
        <ele>169.8</ele>
        <time>2023-03-07T09:35:27Z</time>
      </trkpt>
      <trkpt lat="48.67903" lon="1.81166">
        <ele>170.1</ele>
        <time>2023-03-07T09:35:33Z</time>
      </trkpt>
      <trkpt lat="48.67894" lon="1.81164">
        <ele>170.1</ele>
        <time>2023-03-07T09:35:39Z</time>
      </trkpt>
      <trkpt lat="48.67885" lon="1.81159">
        <ele>169.9</ele>
        <time>2023-03-07T09:35:44Z</time>
      </trkpt>
      <trkpt lat="48.67877" lon="1.81154">
        <ele>169.4</ele>
        <time>2023-03-07T09:35:50Z</time>
      </trkpt>
      <trkpt lat="48.67869" lon="1.81146">
        <ele>169.1</ele>
        <time>2023-03-07T09:35:58Z</time>
      </trkpt>
      <trkpt lat="48.67861" lon="1.81137">
        <ele>168.9</ele>
        <time>2023-03-07T09:36:06Z</time>
      </trkpt>
      <trkpt lat="48.67853" lon="1.81129">
        <ele>168.9</ele>
        <time>2023-03-07T09:36:14Z</time>
      </trkpt>
      <trkpt lat="48.67843" lon="1.81124">
        <ele>169.2</ele>
        <time>2023-03-07T09:36:24Z</time>
      </trkpt>
      <trkpt lat="48.67835" lon="1.81129">
        <ele>169.3</ele>
        <time>2023-03-07T09:36:31Z</time>
      </trkpt>
      <trkpt lat="48.67826" lon="1.81136">
        <ele>169.6</ele>
        <time>2023-03-07T09:36:39Z</time>
      </trkpt>
      <trkpt lat="48.67817" lon="1.81143">
        <ele>169.8</ele>
        <time>2023-03-07T09:36:46Z</time>
      </trkpt>
      <trkpt lat="48.6781" lon="1.81153">
        <ele>169.7</ele>
        <time>2023-03-07T09:36:51Z</time>
      </trkpt>
      <trkpt lat="48.67802" lon="1.81159">
        <ele>169.8</ele>
        <time>2023-03-07T09:36:57Z</time>
      </trkpt>
      <trkpt lat="48.67794" lon="1.81167">
        <ele>169.8</ele>
        <time>2023-03-07T09:37:04Z</time>
      </trkpt>
      <trkpt lat="48.67785" lon="1.81175">
        <ele>170.1</ele>
        <time>2023-03-07T09:37:11Z</time>
      </trkpt>
      <trkpt lat="48.67777" lon="1.81185">
        <ele>170.4</ele>
        <time>2023-03-07T09:37:17Z</time>
      </trkpt>
      <trkpt lat="48.67769" lon="1.81194">
        <ele>170.3</ele>
        <time>2023-03-07T09:37:24Z</time>
      </trkpt>
      <trkpt lat="48.67762" lon="1.81205">
        <ele>170</ele>
        <time>2023-03-07T09:37:31Z</time>
      </trkpt>
      <trkpt lat="48.67756" lon="1.81216">
        <ele>169.9</ele>
        <time>2023-03-07T09:37:38Z</time>
      </trkpt>
      <trkpt lat="48.67748" lon="1.81224">
        <ele>170</ele>
        <time>2023-03-07T09:37:46Z</time>
      </trkpt>
      <trkpt lat="48.67742" lon="1.81235">
        <ele>170</ele>
        <time>2023-03-07T09:37:54Z</time>
      </trkpt>
      <trkpt lat="48.67734" lon="1.81245">
        <ele>170.2</ele>
        <time>2023-03-07T09:38:01Z</time>
      </trkpt>
      <trkpt lat="48.67728" lon="1.81256">
        <ele>170.4</ele>
        <time>2023-03-07T09:38:09Z</time>
      </trkpt>
      <trkpt lat="48.67723" lon="1.81269">
        <ele>170.2</ele>
        <time>2023-03-07T09:38:17Z</time>
      </trkpt>
      <trkpt lat="48.67719" lon="1.81282">
        <ele>169.9</ele>
        <time>2023-03-07T09:38:24Z</time>
      </trkpt>
      <trkpt lat="48.67713" lon="1.81293">
        <ele>169.6</ele>
        <time>2023-03-07T09:38:31Z</time>
      </trkpt>
      <trkpt lat="48.67709" lon="1.81306">
        <ele>169.4</ele>
        <time>2023-03-07T09:38:38Z</time>
      </trkpt>
      <trkpt lat="48.67705" lon="1.81319">
        <ele>170.2</ele>
        <time>2023-03-07T09:38:45Z</time>
      </trkpt>
      <trkpt lat="48.67701" lon="1.81333">
        <ele>171.1</ele>
        <time>2023-03-07T09:38:51Z</time>
      </trkpt>
      <trkpt lat="48.67696" lon="1.81346">
        <ele>171.3</ele>
        <time>2023-03-07T09:38:58Z</time>
      </trkpt>
      <trkpt lat="48.6769" lon="1.81358">
        <ele>171.4</ele>
        <time>2023-03-07T09:39:06Z</time>
      </trkpt>
      <trkpt lat="48.67688" lon="1.81372">
        <ele>171</ele>
        <time>2023-03-07T09:39:15Z</time>
      </trkpt>
      <trkpt lat="48.6769" lon="1.81387">
        <ele>170.4</ele>
        <time>2023-03-07T09:39:28Z</time>
      </trkpt>
      <trkpt lat="48.67691" lon="1.814">
        <ele>169.5</ele>
        <time>2023-03-07T09:39:46Z</time>
      </trkpt>
      <trkpt lat="48.67687" lon="1.81413">
        <ele>169.3</ele>
        <time>2023-03-07T09:39:57Z</time>
      </trkpt>
      <trkpt lat="48.67681" lon="1.81425">
        <ele>169.5</ele>
        <time>2023-03-07T09:40:05Z</time>
      </trkpt>
      <trkpt lat="48.67677" lon="1.81438">
        <ele>169.8</ele>
        <time>2023-03-07T09:40:14Z</time>
      </trkpt>
      <trkpt lat="48.67673" lon="1.81451">
        <ele>170.7</ele>
        <time>2023-03-07T09:40:22Z</time>
      </trkpt>
      <trkpt lat="48.67668" lon="1.81464">
        <ele>171.8</ele>
        <time>2023-03-07T09:40:28Z</time>
      </trkpt>
      <trkpt lat="48.67665" lon="1.81478">
        <ele>171.9</ele>
        <time>2023-03-07T09:40:36Z</time>
      </trkpt>
      <trkpt lat="48.67663" lon="1.81492">
        <ele>171.4</ele>
        <time>2023-03-07T09:40:44Z</time>
      </trkpt>
      <trkpt lat="48.67667" lon="1.81505">
        <ele>171</ele>
        <time>2023-03-07T09:40:50Z</time>
      </trkpt>
      <trkpt lat="48.67671" lon="1.8152">
        <ele>170.3</ele>
        <time>2023-03-07T09:40:57Z</time>
      </trkpt>
      <trkpt lat="48.67668" lon="1.81533">
        <ele>170.8</ele>
        <time>2023-03-07T09:41:05Z</time>
      </trkpt>
      <trkpt lat="48.67668" lon="1.81549">
        <ele>170.7</ele>
        <time>2023-03-07T09:41:11Z</time>
      </trkpt>
      <trkpt lat="48.6767" lon="1.81562">
        <ele>170.2</ele>
        <time>2023-03-07T09:41:16Z</time>
      </trkpt>
      <trkpt lat="48.67671" lon="1.81576">
        <ele>169.4</ele>
        <time>2023-03-07T09:41:23Z</time>
      </trkpt>
      <trkpt lat="48.67672" lon="1.81592">
        <ele>169.1</ele>
        <time>2023-03-07T09:41:30Z</time>
      </trkpt>
      <trkpt lat="48.67673" lon="1.81607">
        <ele>168.9</ele>
        <time>2023-03-07T09:41:36Z</time>
      </trkpt>
      <trkpt lat="48.67678" lon="1.8162">
        <ele>167.8</ele>
        <time>2023-03-07T09:41:43Z</time>
      </trkpt>
      <trkpt lat="48.67677" lon="1.81634">
        <ele>167.9</ele>
        <time>2023-03-07T09:41:49Z</time>
      </trkpt>
      <trkpt lat="48.67678" lon="1.81649">
        <ele>167.9</ele>
        <time>2023-03-07T09:41:55Z</time>
      </trkpt>
      <trkpt lat="48.67683" lon="1.81662">
        <ele>167.5</ele>
        <time>2023-03-07T09:42:02Z</time>
      </trkpt>
      <trkpt lat="48.67684" lon="1.81676">
        <ele>167.7</ele>
        <time>2023-03-07T09:42:09Z</time>
      </trkpt>
      <trkpt lat="48.67683" lon="1.81689">
        <ele>168.2</ele>
        <time>2023-03-07T09:42:15Z</time>
      </trkpt>
      <trkpt lat="48.6768" lon="1.81705">
        <ele>168.7</ele>
        <time>2023-03-07T09:42:22Z</time>
      </trkpt>
      <trkpt lat="48.67677" lon="1.81718">
        <ele>169.2</ele>
        <time>2023-03-07T09:42:28Z</time>
      </trkpt>
      <trkpt lat="48.67677" lon="1.81732">
        <ele>169.5</ele>
        <time>2023-03-07T09:42:33Z</time>
      </trkpt>
      <trkpt lat="48.67677" lon="1.81747">
        <ele>169.8</ele>
        <time>2023-03-07T09:42:40Z</time>
      </trkpt>
      <trkpt lat="48.67679" lon="1.81761">
        <ele>169.5</ele>
        <time>2023-03-07T09:42:47Z</time>
      </trkpt>
      <trkpt lat="48.67682" lon="1.81775">
        <ele>168.9</ele>
        <time>2023-03-07T09:42:54Z</time>
      </trkpt>
      <trkpt lat="48.67684" lon="1.8179">
        <ele>168.5</ele>
        <time>2023-03-07T09:43:01Z</time>
      </trkpt>
      <trkpt lat="48.67684" lon="1.81804">
        <ele>168.4</ele>
        <time>2023-03-07T09:43:08Z</time>
      </trkpt>
      <trkpt lat="48.67683" lon="1.81818">
        <ele>168.9</ele>
        <time>2023-03-07T09:43:15Z</time>
      </trkpt>
      <trkpt lat="48.6768" lon="1.81832">
        <ele>169.6</ele>
        <time>2023-03-07T09:43:23Z</time>
      </trkpt>
      <trkpt lat="48.67676" lon="1.81846">
        <ele>169.8</ele>
        <time>2023-03-07T09:43:30Z</time>
      </trkpt>
      <trkpt lat="48.67676" lon="1.81861">
        <ele>169.6</ele>
        <time>2023-03-07T09:43:36Z</time>
      </trkpt>
      <trkpt lat="48.67676" lon="1.81876">
        <ele>169.7</ele>
        <time>2023-03-07T09:43:42Z</time>
      </trkpt>
      <trkpt lat="48.67673" lon="1.81891">
        <ele>170.1</ele>
        <time>2023-03-07T09:43:48Z</time>
      </trkpt>
      <trkpt lat="48.67672" lon="1.81907">
        <ele>170.7</ele>
        <time>2023-03-07T09:43:55Z</time>
      </trkpt>
      <trkpt lat="48.67674" lon="1.81921">
        <ele>170.7</ele>
        <time>2023-03-07T09:44:04Z</time>
      </trkpt>
      <trkpt lat="48.6767" lon="1.81935">
        <ele>171.4</ele>
        <time>2023-03-07T09:44:11Z</time>
      </trkpt>
      <trkpt lat="48.67673" lon="1.81949">
        <ele>170.9</ele>
        <time>2023-03-07T09:44:18Z</time>
      </trkpt>
      <trkpt lat="48.67674" lon="1.81964">
        <ele>170.8</ele>
        <time>2023-03-07T09:44:25Z</time>
      </trkpt>
      <trkpt lat="48.67676" lon="1.81978">
        <ele>170.7</ele>
        <time>2023-03-07T09:44:31Z</time>
      </trkpt>
      <trkpt lat="48.67678" lon="1.81991">
        <ele>170.7</ele>
        <time>2023-03-07T09:44:37Z</time>
      </trkpt>
      <trkpt lat="48.67675" lon="1.82006">
        <ele>171.1</ele>
        <time>2023-03-07T09:44:44Z</time>
      </trkpt>
      <trkpt lat="48.67675" lon="1.82021">
        <ele>171.2</ele>
        <time>2023-03-07T09:44:52Z</time>
      </trkpt>
      <trkpt lat="48.67667" lon="1.82033">
        <ele>172</ele>
        <time>2023-03-07T09:45:02Z</time>
      </trkpt>
      <trkpt lat="48.6767" lon="1.82046">
        <ele>171.7</ele>
        <time>2023-03-07T09:45:09Z</time>
      </trkpt>
      <trkpt lat="48.67669" lon="1.8206">
        <ele>171.7</ele>
        <time>2023-03-07T09:45:16Z</time>
      </trkpt>
      <trkpt lat="48.67665" lon="1.82073">
        <ele>172.1</ele>
        <time>2023-03-07T09:45:23Z</time>
      </trkpt>
      <trkpt lat="48.67662" lon="1.82086">
        <ele>172.2</ele>
        <time>2023-03-07T09:45:32Z</time>
      </trkpt>
      <trkpt lat="48.67659" lon="1.821">
        <ele>172.3</ele>
        <time>2023-03-07T09:45:41Z</time>
      </trkpt>
      <trkpt lat="48.6766" lon="1.82116">
        <ele>172.2</ele>
        <time>2023-03-07T09:45:47Z</time>
      </trkpt>
      <trkpt lat="48.67654" lon="1.82127">
        <ele>172.2</ele>
        <time>2023-03-07T09:45:54Z</time>
      </trkpt>
      <trkpt lat="48.67657" lon="1.82142">
        <ele>172</ele>
        <time>2023-03-07T09:46:00Z</time>
      </trkpt>
      <trkpt lat="48.67652" lon="1.82155">
        <ele>172</ele>
        <time>2023-03-07T09:46:09Z</time>
      </trkpt>
      <trkpt lat="48.67643" lon="1.82162">
        <ele>172</ele>
        <time>2023-03-07T09:46:15Z</time>
      </trkpt>
      <trkpt lat="48.67635" lon="1.82171">
        <ele>172</ele>
        <time>2023-03-07T09:46:22Z</time>
      </trkpt>
      <trkpt lat="48.67627" lon="1.8218">
        <ele>172</ele>
        <time>2023-03-07T09:46:28Z</time>
      </trkpt>
      <trkpt lat="48.67619" lon="1.82188">
        <ele>172</ele>
        <time>2023-03-07T09:46:34Z</time>
      </trkpt>
      <trkpt lat="48.67611" lon="1.82197">
        <ele>172</ele>
        <time>2023-03-07T09:46:40Z</time>
      </trkpt>
      <trkpt lat="48.67602" lon="1.82201">
        <ele>172</ele>
        <time>2023-03-07T09:47:43Z</time>
      </trkpt>
      <trkpt lat="48.67593" lon="1.82199">
        <ele>172</ele>
        <time>2023-03-07T09:47:55Z</time>
      </trkpt>
      <trkpt lat="48.67583" lon="1.82196">
        <ele>172</ele>
        <time>2023-03-07T09:48:02Z</time>
      </trkpt>
      <trkpt lat="48.67574" lon="1.82187">
        <ele>172</ele>
        <time>2023-03-07T09:48:18Z</time>
      </trkpt>
      <trkpt lat="48.67565" lon="1.82189">
        <ele>172</ele>
        <time>2023-03-07T09:48:24Z</time>
      </trkpt>
      <trkpt lat="48.67555" lon="1.82183">
        <ele>172</ele>
        <time>2023-03-07T09:48:41Z</time>
      </trkpt>
      <trkpt lat="48.67546" lon="1.82181">
        <ele>172</ele>
        <time>2023-03-07T09:48:47Z</time>
      </trkpt>
      <trkpt lat="48.67535" lon="1.82181">
        <ele>172</ele>
        <time>2023-03-07T09:48:53Z</time>
      </trkpt>
      <trkpt lat="48.67526" lon="1.82182">
        <ele>172</ele>
        <time>2023-03-07T09:48:58Z</time>
      </trkpt>
      <trkpt lat="48.67516" lon="1.8218">
        <ele>172</ele>
        <time>2023-03-07T09:49:04Z</time>
      </trkpt>
      <trkpt lat="48.67507" lon="1.82177">
        <ele>172</ele>
        <time>2023-03-07T09:49:09Z</time>
      </trkpt>
      <trkpt lat="48.67498" lon="1.82173">
        <ele>171.9</ele>
        <time>2023-03-07T09:49:15Z</time>
      </trkpt>
      <trkpt lat="48.67488" lon="1.82173">
        <ele>171.6</ele>
        <time>2023-03-07T09:49:21Z</time>
      </trkpt>
      <trkpt lat="48.67479" lon="1.82172">
        <ele>171.2</ele>
        <time>2023-03-07T09:49:26Z</time>
      </trkpt>
      <trkpt lat="48.67469" lon="1.8217">
        <ele>171</ele>
        <time>2023-03-07T09:49:31Z</time>
      </trkpt>
      <trkpt lat="48.6746" lon="1.82164">
        <ele>171.1</ele>
        <time>2023-03-07T09:49:36Z</time>
      </trkpt>
      <trkpt lat="48.6745" lon="1.82163">
        <ele>171</ele>
        <time>2023-03-07T09:49:41Z</time>
      </trkpt>
      <trkpt lat="48.6744" lon="1.82168">
        <ele>171</ele>
        <time>2023-03-07T09:49:48Z</time>
      </trkpt>
      <trkpt lat="48.67431" lon="1.82165">
        <ele>171</ele>
        <time>2023-03-07T09:49:53Z</time>
      </trkpt>
      <trkpt lat="48.67422" lon="1.82162">
        <ele>171</ele>
        <time>2023-03-07T09:50:00Z</time>
      </trkpt>
      <trkpt lat="48.67413" lon="1.82162">
        <ele>171</ele>
        <time>2023-03-07T09:50:07Z</time>
      </trkpt>
      <trkpt lat="48.67403" lon="1.82156">
        <ele>171</ele>
        <time>2023-03-07T09:50:13Z</time>
      </trkpt>
      <trkpt lat="48.67394" lon="1.82155">
        <ele>171</ele>
        <time>2023-03-07T09:50:19Z</time>
      </trkpt>
      <trkpt lat="48.67384" lon="1.82152">
        <ele>171</ele>
        <time>2023-03-07T09:50:26Z</time>
      </trkpt>
      <trkpt lat="48.67374" lon="1.8215">
        <ele>171</ele>
        <time>2023-03-07T09:50:33Z</time>
      </trkpt>
      <trkpt lat="48.67365" lon="1.82148">
        <ele>171</ele>
        <time>2023-03-07T09:50:40Z</time>
      </trkpt>
      <trkpt lat="48.67356" lon="1.82147">
        <ele>171</ele>
        <time>2023-03-07T09:50:48Z</time>
      </trkpt>
      <trkpt lat="48.67346" lon="1.82148">
        <ele>171</ele>
        <time>2023-03-07T09:50:55Z</time>
      </trkpt>
      <trkpt lat="48.67337" lon="1.82145">
        <ele>171</ele>
        <time>2023-03-07T09:51:01Z</time>
      </trkpt>
      <trkpt lat="48.67328" lon="1.82144">
        <ele>170.8</ele>
        <time>2023-03-07T09:51:07Z</time>
      </trkpt>
      <trkpt lat="48.67319" lon="1.8214">
        <ele>170.5</ele>
        <time>2023-03-07T09:51:13Z</time>
      </trkpt>
      <trkpt lat="48.6731" lon="1.82137">
        <ele>170.2</ele>
        <time>2023-03-07T09:51:19Z</time>
      </trkpt>
      <trkpt lat="48.67301" lon="1.82135">
        <ele>170</ele>
        <time>2023-03-07T09:51:25Z</time>
      </trkpt>
      <trkpt lat="48.67291" lon="1.82131">
        <ele>170</ele>
        <time>2023-03-07T09:51:33Z</time>
      </trkpt>
      <trkpt lat="48.67281" lon="1.82131">
        <ele>170</ele>
        <time>2023-03-07T09:51:38Z</time>
      </trkpt>
      <trkpt lat="48.67271" lon="1.82135">
        <ele>170</ele>
        <time>2023-03-07T09:51:43Z</time>
      </trkpt>
      <trkpt lat="48.67261" lon="1.82132">
        <ele>170</ele>
        <time>2023-03-07T09:51:50Z</time>
      </trkpt>
      <trkpt lat="48.67252" lon="1.82129">
        <ele>170</ele>
        <time>2023-03-07T09:51:56Z</time>
      </trkpt>
      <trkpt lat="48.67243" lon="1.82124">
        <ele>170</ele>
        <time>2023-03-07T09:52:05Z</time>
      </trkpt>
      <trkpt lat="48.67233" lon="1.82123">
        <ele>170</ele>
        <time>2023-03-07T09:52:13Z</time>
      </trkpt>
      <trkpt lat="48.67224" lon="1.82121">
        <ele>170</ele>
        <time>2023-03-07T09:52:20Z</time>
      </trkpt>
      <trkpt lat="48.67214" lon="1.82121">
        <ele>169.7</ele>
        <time>2023-03-07T09:52:27Z</time>
      </trkpt>
      <trkpt lat="48.67203" lon="1.82119">
        <ele>169.3</ele>
        <time>2023-03-07T09:52:33Z</time>
      </trkpt>
      <trkpt lat="48.67193" lon="1.82118">
        <ele>169</ele>
        <time>2023-03-07T09:52:39Z</time>
      </trkpt>
      <trkpt lat="48.67184" lon="1.82115">
        <ele>168.7</ele>
        <time>2023-03-07T09:52:45Z</time>
      </trkpt>
      <trkpt lat="48.67175" lon="1.8212">
        <ele>168.5</ele>
        <time>2023-03-07T09:52:51Z</time>
      </trkpt>
      <trkpt lat="48.67166" lon="1.82116">
        <ele>168.2</ele>
        <time>2023-03-07T09:53:02Z</time>
      </trkpt>
      <trkpt lat="48.67157" lon="1.82114">
        <ele>168.1</ele>
        <time>2023-03-07T09:53:09Z</time>
      </trkpt>
      <trkpt lat="48.67148" lon="1.8211">
        <ele>168</ele>
        <time>2023-03-07T09:53:14Z</time>
      </trkpt>
      <trkpt lat="48.67138" lon="1.82104">
        <ele>168</ele>
        <time>2023-03-07T09:53:22Z</time>
      </trkpt>
      <trkpt lat="48.67128" lon="1.82105">
        <ele>168</ele>
        <time>2023-03-07T09:53:28Z</time>
      </trkpt>
      <trkpt lat="48.67119" lon="1.82107">
        <ele>168</ele>
        <time>2023-03-07T09:53:33Z</time>
      </trkpt>
      <trkpt lat="48.67109" lon="1.82105">
        <ele>168</ele>
        <time>2023-03-07T09:53:41Z</time>
      </trkpt>
      <trkpt lat="48.671" lon="1.82104">
        <ele>168</ele>
        <time>2023-03-07T09:53:46Z</time>
      </trkpt>
      <trkpt lat="48.67091" lon="1.82103">
        <ele>168</ele>
        <time>2023-03-07T09:53:52Z</time>
      </trkpt>
      <trkpt lat="48.67084" lon="1.82094">
        <ele>168</ele>
        <time>2023-03-07T09:53:59Z</time>
      </trkpt>
      <trkpt lat="48.67073" lon="1.82093">
        <ele>167.8</ele>
        <time>2023-03-07T09:54:07Z</time>
      </trkpt>
      <trkpt lat="48.67063" lon="1.8209">
        <ele>167.4</ele>
        <time>2023-03-07T09:54:14Z</time>
      </trkpt>
      <trkpt lat="48.67053" lon="1.82087">
        <ele>167.1</ele>
        <time>2023-03-07T09:54:19Z</time>
      </trkpt>
      <trkpt lat="48.67044" lon="1.82084">
        <ele>167</ele>
        <time>2023-03-07T09:54:25Z</time>
      </trkpt>
      <trkpt lat="48.67034" lon="1.82083">
        <ele>167</ele>
        <time>2023-03-07T09:54:30Z</time>
      </trkpt>
      <trkpt lat="48.67025" lon="1.82084">
        <ele>167</ele>
        <time>2023-03-07T09:54:36Z</time>
      </trkpt>
      <trkpt lat="48.67015" lon="1.82084">
        <ele>167</ele>
        <time>2023-03-07T09:54:43Z</time>
      </trkpt>
      <trkpt lat="48.67006" lon="1.82084">
        <ele>167</ele>
        <time>2023-03-07T09:54:49Z</time>
      </trkpt>
      <trkpt lat="48.66996" lon="1.82084">
        <ele>167</ele>
        <time>2023-03-07T09:54:56Z</time>
      </trkpt>
      <trkpt lat="48.66987" lon="1.8208">
        <ele>167</ele>
        <time>2023-03-07T09:55:03Z</time>
      </trkpt>
      <trkpt lat="48.66977" lon="1.82078">
        <ele>167</ele>
        <time>2023-03-07T09:55:10Z</time>
      </trkpt>
      <trkpt lat="48.66968" lon="1.82081">
        <ele>166.9</ele>
        <time>2023-03-07T09:55:17Z</time>
      </trkpt>
      <trkpt lat="48.66959" lon="1.82081">
        <ele>166.6</ele>
        <time>2023-03-07T09:55:22Z</time>
      </trkpt>
      <trkpt lat="48.66948" lon="1.82078">
        <ele>166.3</ele>
        <time>2023-03-07T09:55:28Z</time>
      </trkpt>
      <trkpt lat="48.66939" lon="1.82077">
        <ele>166.2</ele>
        <time>2023-03-07T09:55:33Z</time>
      </trkpt>
      <trkpt lat="48.6693" lon="1.82075">
        <ele>166.3</ele>
        <time>2023-03-07T09:55:39Z</time>
      </trkpt>
      <trkpt lat="48.66921" lon="1.8207">
        <ele>166.5</ele>
        <time>2023-03-07T09:55:44Z</time>
      </trkpt>
      <trkpt lat="48.66911" lon="1.82072">
        <ele>166.3</ele>
        <time>2023-03-07T09:55:50Z</time>
      </trkpt>
      <trkpt lat="48.66901" lon="1.82072">
        <ele>166.2</ele>
        <time>2023-03-07T09:56:01Z</time>
      </trkpt>
      <trkpt lat="48.66891" lon="1.82067">
        <ele>166</ele>
        <time>2023-03-07T09:56:07Z</time>
      </trkpt>
      <trkpt lat="48.66881" lon="1.82065">
        <ele>166</ele>
        <time>2023-03-07T09:56:14Z</time>
      </trkpt>
      <trkpt lat="48.6687" lon="1.82063">
        <ele>166</ele>
        <time>2023-03-07T09:56:21Z</time>
      </trkpt>
      <trkpt lat="48.66861" lon="1.82058">
        <ele>166</ele>
        <time>2023-03-07T09:56:28Z</time>
      </trkpt>
      <trkpt lat="48.66852" lon="1.82054">
        <ele>166</ele>
        <time>2023-03-07T09:56:40Z</time>
      </trkpt>
      <trkpt lat="48.66843" lon="1.82052">
        <ele>166</ele>
        <time>2023-03-07T09:56:45Z</time>
      </trkpt>
      <trkpt lat="48.66834" lon="1.8205">
        <ele>166</ele>
        <time>2023-03-07T09:56:51Z</time>
      </trkpt>
      <trkpt lat="48.66824" lon="1.8205">
        <ele>165.7</ele>
        <time>2023-03-07T09:56:57Z</time>
      </trkpt>
      <trkpt lat="48.66815" lon="1.82047">
        <ele>165.5</ele>
        <time>2023-03-07T09:57:03Z</time>
      </trkpt>
      <trkpt lat="48.66805" lon="1.82046">
        <ele>165.3</ele>
        <time>2023-03-07T09:57:09Z</time>
      </trkpt>
      <trkpt lat="48.66795" lon="1.82047">
        <ele>165.2</ele>
        <time>2023-03-07T09:57:14Z</time>
      </trkpt>
      <trkpt lat="48.66785" lon="1.82045">
        <ele>165.1</ele>
        <time>2023-03-07T09:57:20Z</time>
      </trkpt>
      <trkpt lat="48.66775" lon="1.82045">
        <ele>165.1</ele>
        <time>2023-03-07T09:57:27Z</time>
      </trkpt>
      <trkpt lat="48.66766" lon="1.82044">
        <ele>165.4</ele>
        <time>2023-03-07T09:57:33Z</time>
      </trkpt>
      <trkpt lat="48.66757" lon="1.82041">
        <ele>165.8</ele>
        <time>2023-03-07T09:57:41Z</time>
      </trkpt>
      <trkpt lat="48.66747" lon="1.8204">
        <ele>166.1</ele>
        <time>2023-03-07T09:57:48Z</time>
      </trkpt>
      <trkpt lat="48.66738" lon="1.82042">
        <ele>166.2</ele>
        <time>2023-03-07T09:57:54Z</time>
      </trkpt>
      <trkpt lat="48.66729" lon="1.82043">
        <ele>166.3</ele>
        <time>2023-03-07T09:58:00Z</time>
      </trkpt>
      <trkpt lat="48.6672" lon="1.82043">
        <ele>166.4</ele>
        <time>2023-03-07T09:58:06Z</time>
      </trkpt>
      <trkpt lat="48.6671" lon="1.82038">
        <ele>166.4</ele>
        <time>2023-03-07T09:58:13Z</time>
      </trkpt>
      <trkpt lat="48.66701" lon="1.82031">
        <ele>166.2</ele>
        <time>2023-03-07T09:58:20Z</time>
      </trkpt>
      <trkpt lat="48.66693" lon="1.82024">
        <ele>166.2</ele>
        <time>2023-03-07T09:58:27Z</time>
      </trkpt>
      <trkpt lat="48.66685" lon="1.82015">
        <ele>166.6</ele>
        <time>2023-03-07T09:58:35Z</time>
      </trkpt>
      <trkpt lat="48.66677" lon="1.82005">
        <ele>166.9</ele>
        <time>2023-03-07T09:58:43Z</time>
      </trkpt>
      <trkpt lat="48.6667" lon="1.81995">
        <ele>167</ele>
        <time>2023-03-07T09:58:50Z</time>
      </trkpt>
      <trkpt lat="48.66661" lon="1.81988">
        <ele>167</ele>
        <time>2023-03-07T09:58:57Z</time>
      </trkpt>
      <trkpt lat="48.66653" lon="1.81979">
        <ele>167</ele>
        <time>2023-03-07T09:59:04Z</time>
      </trkpt>
      <trkpt lat="48.66645" lon="1.8197">
        <ele>167</ele>
        <time>2023-03-07T09:59:11Z</time>
      </trkpt>
      <trkpt lat="48.66637" lon="1.8196">
        <ele>167</ele>
        <time>2023-03-07T09:59:18Z</time>
      </trkpt>
      <trkpt lat="48.66629" lon="1.8195">
        <ele>167</ele>
        <time>2023-03-07T09:59:25Z</time>
      </trkpt>
      <trkpt lat="48.66621" lon="1.81942">
        <ele>167.1</ele>
        <time>2023-03-07T09:59:31Z</time>
      </trkpt>
      <trkpt lat="48.66611" lon="1.81935">
        <ele>167.3</ele>
        <time>2023-03-07T09:59:38Z</time>
      </trkpt>
      <trkpt lat="48.66603" lon="1.81929">
        <ele>167.7</ele>
        <time>2023-03-07T09:59:44Z</time>
      </trkpt>
      <trkpt lat="48.66594" lon="1.81922">
        <ele>167.9</ele>
        <time>2023-03-07T09:59:52Z</time>
      </trkpt>
      <trkpt lat="48.66586" lon="1.81915">
        <ele>168</ele>
        <time>2023-03-07T09:59:59Z</time>
      </trkpt>
      <trkpt lat="48.66578" lon="1.81907">
        <ele>168</ele>
        <time>2023-03-07T10:00:06Z</time>
      </trkpt>
      <trkpt lat="48.6657" lon="1.81897">
        <ele>168</ele>
        <time>2023-03-07T10:00:13Z</time>
      </trkpt>
      <trkpt lat="48.66563" lon="1.81888">
        <ele>168</ele>
        <time>2023-03-07T10:00:19Z</time>
      </trkpt>
      <trkpt lat="48.66555" lon="1.8188">
        <ele>168</ele>
        <time>2023-03-07T10:00:26Z</time>
      </trkpt>
      <trkpt lat="48.66548" lon="1.81871">
        <ele>168.2</ele>
        <time>2023-03-07T10:00:32Z</time>
      </trkpt>
      <trkpt lat="48.66539" lon="1.81864">
        <ele>168.5</ele>
        <time>2023-03-07T10:00:38Z</time>
      </trkpt>
      <trkpt lat="48.66531" lon="1.81857">
        <ele>168.9</ele>
        <time>2023-03-07T10:00:44Z</time>
      </trkpt>
      <trkpt lat="48.66524" lon="1.81847">
        <ele>169</ele>
        <time>2023-03-07T10:00:51Z</time>
      </trkpt>
      <trkpt lat="48.66516" lon="1.81839">
        <ele>169</ele>
        <time>2023-03-07T10:00:57Z</time>
      </trkpt>
      <trkpt lat="48.66509" lon="1.81831">
        <ele>169.1</ele>
        <time>2023-03-07T10:01:05Z</time>
      </trkpt>
      <trkpt lat="48.66502" lon="1.81821">
        <ele>169.4</ele>
        <time>2023-03-07T10:01:13Z</time>
      </trkpt>
      <trkpt lat="48.66495" lon="1.81813">
        <ele>169.8</ele>
        <time>2023-03-07T10:01:20Z</time>
      </trkpt>
      <trkpt lat="48.66486" lon="1.81805">
        <ele>170</ele>
        <time>2023-03-07T10:01:27Z</time>
      </trkpt>
      <trkpt lat="48.66478" lon="1.81798">
        <ele>170</ele>
        <time>2023-03-07T10:01:34Z</time>
      </trkpt>
      <trkpt lat="48.66469" lon="1.81791">
        <ele>170</ele>
        <time>2023-03-07T10:01:40Z</time>
      </trkpt>
      <trkpt lat="48.6646" lon="1.81785">
        <ele>170</ele>
        <time>2023-03-07T10:01:46Z</time>
      </trkpt>
      <trkpt lat="48.66451" lon="1.81778">
        <ele>170</ele>
        <time>2023-03-07T10:01:52Z</time>
      </trkpt>
      <trkpt lat="48.66444" lon="1.8177">
        <ele>170</ele>
        <time>2023-03-07T10:01:58Z</time>
      </trkpt>
      <trkpt lat="48.66435" lon="1.81762">
        <ele>170</ele>
        <time>2023-03-07T10:02:05Z</time>
      </trkpt>
      <trkpt lat="48.66427" lon="1.81755">
        <ele>170</ele>
        <time>2023-03-07T10:02:11Z</time>
      </trkpt>
      <trkpt lat="48.66418" lon="1.81747">
        <ele>170</ele>
        <time>2023-03-07T10:02:18Z</time>
      </trkpt>
      <trkpt lat="48.6641" lon="1.81741">
        <ele>170</ele>
        <time>2023-03-07T10:02:25Z</time>
      </trkpt>
      <trkpt lat="48.66401" lon="1.81732">
        <ele>170</ele>
        <time>2023-03-07T10:02:32Z</time>
      </trkpt>
      <trkpt lat="48.66394" lon="1.81724">
        <ele>170</ele>
        <time>2023-03-07T10:02:39Z</time>
      </trkpt>
      <trkpt lat="48.66386" lon="1.81715">
        <ele>170</ele>
        <time>2023-03-07T10:02:47Z</time>
      </trkpt>
      <trkpt lat="48.66378" lon="1.81706">
        <ele>170</ele>
        <time>2023-03-07T10:02:54Z</time>
      </trkpt>
      <trkpt lat="48.66369" lon="1.81698">
        <ele>170</ele>
        <time>2023-03-07T10:03:01Z</time>
      </trkpt>
      <trkpt lat="48.66361" lon="1.81689">
        <ele>170</ele>
        <time>2023-03-07T10:03:08Z</time>
      </trkpt>
      <trkpt lat="48.66352" lon="1.81681">
        <ele>169.8</ele>
        <time>2023-03-07T10:03:15Z</time>
      </trkpt>
      <trkpt lat="48.66344" lon="1.81672">
        <ele>169.9</ele>
        <time>2023-03-07T10:03:22Z</time>
      </trkpt>
      <trkpt lat="48.66336" lon="1.81663">
        <ele>170</ele>
        <time>2023-03-07T10:03:30Z</time>
      </trkpt>
      <trkpt lat="48.66328" lon="1.81654">
        <ele>169.9</ele>
        <time>2023-03-07T10:03:39Z</time>
      </trkpt>
      <trkpt lat="48.66321" lon="1.81644">
        <ele>169.9</ele>
        <time>2023-03-07T10:03:47Z</time>
      </trkpt>
      <trkpt lat="48.66314" lon="1.81636">
        <ele>170</ele>
        <time>2023-03-07T10:03:53Z</time>
      </trkpt>
      <trkpt lat="48.66305" lon="1.81628">
        <ele>170</ele>
        <time>2023-03-07T10:04:00Z</time>
      </trkpt>
      <trkpt lat="48.66297" lon="1.8162">
        <ele>170</ele>
        <time>2023-03-07T10:04:07Z</time>
      </trkpt>
      <trkpt lat="48.66289" lon="1.81612">
        <ele>170</ele>
        <time>2023-03-07T10:04:15Z</time>
      </trkpt>
      <trkpt lat="48.66281" lon="1.81603">
        <ele>170</ele>
        <time>2023-03-07T10:04:23Z</time>
      </trkpt>
      <trkpt lat="48.66277" lon="1.8159">
        <ele>170</ele>
        <time>2023-03-07T10:04:35Z</time>
      </trkpt>
      <trkpt lat="48.66267" lon="1.81589">
        <ele>170</ele>
        <time>2023-03-07T10:04:42Z</time>
      </trkpt>
    </trkseg>
  </trk>
</gpx>